SDM7 ULLI-KLAX
Flight info
| Callsign | SDM7 |
|---|---|
| Flight time | 10h 30m |
| Altitude | 40000 |
| Route | PETAP1B PETAP L254 VULEZ DCT BARUX DCT 7700E/M086F400 DCT 7820N DCT 7840N DCT 7660N DCT DAPAK/N0506F400 DCT 7180N DCT 6590N DCT YEK J540 YVC Q959 MEETO Q896 YQL J540 MLP J537 REO J7 FMG J5 EHF WAYVE1 |
| Aircraft | B748/H-SDE3FGHIM1M2RWXY/LB1 |
Departure
| Time | 2026-04-23 06:56 |
|---|---|
| Airport | Pulkovo Airport (ULLI) |
Arrival
| Time | 2026-04-23 17:27 |
|---|---|
| Airport | Los Angeles International Airport (KLAX) |
| Time | Latitude | Longitude | Altitude | Speed | Heading |
|---|---|---|---|---|---|
| 2026-04-23 06:33 | 59.79851 | 30.26702 | 95 ft | 0 kts | 97° |
| 2026-04-23 06:48 | 59.79852 | 30.26690 | 94 ft | 4 kts | 97° |
| 2026-04-23 06:48 | 59.79856 | 30.26637 | 91 ft | 4 kts | 104° |
| 2026-04-23 06:48 | 59.79863 | 30.26587 | 92 ft | 4 kts | 117° |
| 2026-04-23 06:48 | 59.79874 | 30.26547 | 92 ft | 4 kts | 144° |
| 2026-04-23 06:49 | 59.79886 | 30.26528 | 94 ft | 4 kts | 189° |
| 2026-04-23 06:49 | 59.79891 | 30.26527 | 93 ft | 0 kts | 201° |
| 2026-04-23 06:51 | 59.79889 | 30.26525 | 93 ft | 1 kts | 204° |
| 2026-04-23 06:51 | 59.79875 | 30.26509 | 92 ft | 4 kts | 211° |
| 2026-04-23 06:51 | 59.79829 | 30.26450 | 95 ft | 9 kts | 213° |
| 2026-04-23 06:52 | 59.79777 | 30.26391 | 94 ft | 8 kts | 207° |
| 2026-04-23 06:52 | 59.79726 | 30.26344 | 93 ft | 8 kts | 203° |
| 2026-04-23 06:52 | 59.79685 | 30.26316 | 92 ft | 5 kts | 193° |
| 2026-04-23 06:52 | 59.79624 | 30.26307 | 95 ft | 14 kts | 180° |
| 2026-04-23 06:53 | 59.79536 | 30.26322 | 96 ft | 7 kts | 159° |
| 2026-04-23 06:53 | 59.79508 | 30.26350 | 94 ft | 2 kts | 152° |
| 2026-04-23 06:53 | 59.79502 | 30.26358 | 95 ft | 1 kts | 148° |
| 2026-04-23 06:53 | 59.79491 | 30.26372 | 96 ft | 3 kts | 147° |
| 2026-04-23 06:54 | 59.79455 | 30.26409 | 95 ft | 7 kts | 164° |
| 2026-04-23 06:54 | 59.79378 | 30.26387 | 96 ft | 15 kts | 201° |
| 2026-04-23 06:54 | 59.79334 | 30.26315 | 96 ft | 2 kts | 244° |
| 2026-04-23 06:54 | 59.79332 | 30.26254 | 94 ft | 12 kts | 272° |
| 2026-04-23 06:55 | 59.79342 | 30.26158 | 92 ft | 4 kts | 286° |
| 2026-04-23 06:55 | 59.79407 | 30.25737 | 94 ft | 71 kts | 287° |
| 2026-04-23 06:55 | 59.79624 | 30.24334 | 94 ft | 140 kts | 287° |
| 2026-04-23 06:55 | 59.79964 | 30.22200 | 308 ft | 172 kts | 291° |
| 2026-04-23 06:56 | 59.80314 | 30.19844 | 605 ft | 188 kts | 289° |
| 2026-04-23 06:56 | 59.80687 | 30.17195 | 635 ft | 209 kts | 289° |
| 2026-04-23 06:56 | 59.81324 | 30.14620 | 930 ft | 207 kts | 320° |
| 2026-04-23 06:56 | 59.82573 | 30.13395 | 1741 ft | 198 kts | 351° |
| 2026-04-23 06:57 | 59.84012 | 30.12872 | 2182 ft | 225 kts | 348° |
| 2026-04-23 06:57 | 59.85560 | 30.12040 | 3097 ft | 229 kts | 344° |
| 2026-04-23 06:57 | 59.87087 | 30.11030 | 4076 ft | 234 kts | 343° |
| 2026-04-23 06:57 | 59.88642 | 30.09987 | 4992 ft | 237 kts | 344° |
| 2026-04-23 06:58 | 59.90213 | 30.08965 | 5956 ft | 238 kts | 345° |
| 2026-04-23 06:58 | 59.91801 | 30.07942 | 6834 ft | 241 kts | 345° |
| 2026-04-23 06:58 | 59.93399 | 30.06904 | 7716 ft | 243 kts | 345° |
| 2026-04-23 06:58 | 59.95016 | 30.05851 | 8615 ft | 246 kts | 345° |
| 2026-04-23 06:59 | 59.96643 | 30.04791 | 9703 ft | 247 kts | 345° |
| 2026-04-23 06:59 | 59.98292 | 30.03717 | 10489 ft | 258 kts | 346° |
| 2026-04-23 06:59 | 60.00091 | 30.02553 | 10782 ft | 286 kts | 345° |
| 2026-04-23 06:59 | 60.02000 | 30.01309 | 11076 ft | 311 kts | 345° |
| 2026-04-23 07:00 | 60.04075 | 29.99937 | 12115 ft | 312 kts | 345° |
| 2026-04-23 07:00 | 60.06136 | 29.98528 | 13283 ft | 314 kts | 345° |
| 2026-04-23 07:00 | 60.08199 | 29.97068 | 14333 ft | 314 kts | 345° |
| 2026-04-23 07:00 | 60.10246 | 29.95592 | 15416 ft | 312 kts | 346° |
| 2026-04-23 07:01 | 60.12286 | 29.94135 | 16502 ft | 311 kts | 346° |
| 2026-04-23 07:01 | 60.14320 | 29.92692 | 17572 ft | 310 kts | 347° |
| 2026-04-23 07:01 | 60.16350 | 29.91247 | 18555 ft | 310 kts | 347° |
| 2026-04-23 07:01 | 60.18387 | 29.89791 | 19360 ft | 312 kts | 347° |
| 2026-04-23 07:02 | 60.20440 | 29.88320 | 20180 ft | 314 kts | 347° |
| 2026-04-23 07:02 | 60.22500 | 29.86844 | 20977 ft | 316 kts | 347° |
| 2026-04-23 07:02 | 60.24584 | 29.85349 | 21753 ft | 319 kts | 347° |
| 2026-04-23 07:02 | 60.26683 | 29.83841 | 22491 ft | 321 kts | 347° |
| 2026-04-23 07:03 | 60.28797 | 29.82320 | 23247 ft | 324 kts | 347° |
| 2026-04-23 07:03 | 60.30923 | 29.80787 | 23859 ft | 327 kts | 347° |
| 2026-04-23 07:03 | 60.33076 | 29.79234 | 24392 ft | 330 kts | 347° |
| 2026-04-23 07:03 | 60.35248 | 29.77664 | 24969 ft | 333 kts | 347° |
| 2026-04-23 07:04 | 60.37441 | 29.76077 | 25520 ft | 336 kts | 347° |
| 2026-04-23 07:04 | 60.39654 | 29.74473 | 26070 ft | 339 kts | 347° |
| 2026-04-23 07:04 | 60.41888 | 29.72852 | 26623 ft | 343 kts | 347° |
| 2026-04-23 07:04 | 60.44144 | 29.71220 | 27152 ft | 345 kts | 348° |
| 2026-04-23 07:05 | 60.46434 | 29.69691 | 27681 ft | 350 kts | 345° |
| 2026-04-23 07:05 | 60.48702 | 29.67785 | 28213 ft | 354 kts | 345° |
| 2026-04-23 07:05 | 60.50992 | 29.65876 | 28763 ft | 358 kts | 344° |
| 2026-04-23 07:05 | 60.53290 | 29.63850 | 29298 ft | 362 kts | 343° |
| 2026-04-23 07:06 | 60.55601 | 29.61755 | 29846 ft | 365 kts | 343° |
| 2026-04-23 07:06 | 60.57941 | 29.59669 | 30226 ft | 370 kts | 343° |
| 2026-04-23 07:06 | 60.60288 | 29.57605 | 30573 ft | 375 kts | 343° |
| 2026-04-23 07:06 | 60.62698 | 29.55469 | 30926 ft | 381 kts | 342° |
| 2026-04-23 07:07 | 60.65172 | 29.53255 | 31297 ft | 386 kts | 342° |
| 2026-04-23 07:07 | 60.67609 | 29.51074 | 31646 ft | 391 kts | 342° |
| 2026-04-23 07:07 | 60.70117 | 29.48834 | 31980 ft | 396 kts | 341° |
| 2026-04-23 07:07 | 60.72659 | 29.46560 | 32339 ft | 401 kts | 341° |
| 2026-04-23 07:08 | 60.75231 | 29.44251 | 32686 ft | 406 kts | 341° |
| 2026-04-23 07:08 | 60.77835 | 29.41908 | 33038 ft | 411 kts | 341° |
| 2026-04-23 07:08 | 60.80471 | 29.39534 | 33372 ft | 416 kts | 341° |
| 2026-04-23 07:08 | 60.83137 | 29.37130 | 33728 ft | 421 kts | 340° |
| 2026-04-23 07:09 | 60.85833 | 29.34693 | 34025 ft | 426 kts | 340° |
| 2026-04-23 07:09 | 60.88557 | 29.32225 | 34308 ft | 430 kts | 340° |
| 2026-04-23 07:09 | 60.91309 | 29.29729 | 34593 ft | 434 kts | 340° |
| 2026-04-23 07:09 | 60.94087 | 29.27203 | 34867 ft | 439 kts | 340° |
| 2026-04-23 07:10 | 60.96891 | 29.24650 | 35192 ft | 442 kts | 340° |
| 2026-04-23 07:10 | 60.99702 | 29.22083 | 35583 ft | 443 kts | 340° |
| 2026-04-23 07:10 | 61.02528 | 29.19499 | 35934 ft | 445 kts | 340° |
| 2026-04-23 07:10 | 61.05366 | 29.16900 | 36291 ft | 447 kts | 340° |
| 2026-04-23 07:11 | 61.08212 | 29.14288 | 36650 ft | 449 kts | 339° |
| 2026-04-23 07:11 | 61.11071 | 29.11657 | 37009 ft | 451 kts | 339° |
| 2026-04-23 07:11 | 61.13940 | 29.09014 | 37365 ft | 452 kts | 339° |
| 2026-04-23 07:12 | 61.19705 | 29.03685 | 38074 ft | 455 kts | 339° |
| 2026-04-23 07:12 | 61.22604 | 29.00997 | 38394 ft | 457 kts | 339° |
| 2026-04-23 07:12 | 61.25504 | 28.98303 | 38663 ft | 458 kts | 339° |
| 2026-04-23 07:12 | 61.28418 | 28.95590 | 38910 ft | 459 kts | 339° |
| 2026-04-23 07:13 | 61.31338 | 28.92867 | 39149 ft | 460 kts | 339° |
| 2026-04-23 07:13 | 61.34263 | 28.90133 | 39379 ft | 461 kts | 339° |
| 2026-04-23 07:13 | 61.37192 | 28.87389 | 39609 ft | 462 kts | 339° |
| 2026-04-23 07:13 | 61.40124 | 28.84637 | 39830 ft | 463 kts | 339° |
| 2026-04-23 07:14 | 61.43070 | 28.81868 | 39847 ft | 465 kts | 339° |
| 2026-04-23 07:14 | 61.48980 | 28.76290 | 39845 ft | 466 kts | 338° |
| 2026-04-23 07:15 | 61.54854 | 28.70726 | 39851 ft | 466 kts | 338° |
| 2026-04-23 07:15 | 61.60764 | 28.65102 | 39852 ft | 466 kts | 338° |
| 2026-04-23 07:16 | 61.66673 | 28.59458 | 39850 ft | 467 kts | 338° |
| 2026-04-23 07:16 | 61.72578 | 28.53792 | 39855 ft | 467 kts | 338° |
| 2026-04-23 07:17 | 61.78492 | 28.48094 | 39857 ft | 467 kts | 338° |
| 2026-04-23 07:17 | 61.84407 | 28.42370 | 39858 ft | 468 kts | 338° |
| 2026-04-23 07:18 | 61.90324 | 28.36620 | 39860 ft | 468 kts | 338° |
| 2026-04-23 07:18 | 61.96243 | 28.30843 | 39867 ft | 468 kts | 338° |
| 2026-04-23 07:19 | 62.02164 | 28.25040 | 39873 ft | 469 kts | 338° |
| 2026-04-23 07:19 | 62.08084 | 28.19213 | 39878 ft | 469 kts | 338° |
| 2026-04-23 07:20 | 62.13997 | 28.13368 | 39877 ft | 469 kts | 338° |
| 2026-04-23 07:20 | 62.19916 | 28.07490 | 39894 ft | 469 kts | 338° |
| 2026-04-23 07:21 | 62.25836 | 28.01587 | 39891 ft | 469 kts | 338° |
| 2026-04-23 07:21 | 62.31758 | 27.95656 | 39892 ft | 470 kts | 338° |
| 2026-04-23 07:22 | 62.37640 | 27.89739 | 39887 ft | 470 kts | 338° |
| 2026-04-23 07:22 | 62.43562 | 27.83756 | 39891 ft | 470 kts | 338° |
| 2026-04-23 07:23 | 62.49479 | 27.77751 | 39895 ft | 470 kts | 338° |
| 2026-04-23 07:23 | 62.55398 | 27.71719 | 39887 ft | 470 kts | 338° |
| 2026-04-23 07:24 | 62.61315 | 27.65662 | 39898 ft | 470 kts | 338° |
| 2026-04-23 07:24 | 62.67230 | 27.59579 | 39895 ft | 470 kts | 337° |
| 2026-04-23 07:25 | 62.72180 | 27.54468 | 39893 ft | 470 kts | 337° |
| 2026-04-23 07:25 | 62.78053 | 27.48379 | 39891 ft | 470 kts | 337° |
| 2026-04-23 07:26 | 62.83964 | 27.42224 | 39892 ft | 471 kts | 337° |
| 2026-04-23 07:26 | 62.89874 | 27.36042 | 39889 ft | 471 kts | 337° |
| 2026-04-23 07:27 | 62.95780 | 27.29836 | 39894 ft | 471 kts | 337° |
| 2026-04-23 07:27 | 63.01677 | 27.23612 | 39906 ft | 470 kts | 337° |
| 2026-04-23 07:28 | 63.07577 | 27.17356 | 39901 ft | 470 kts | 337° |
| 2026-04-23 07:28 | 63.13474 | 27.11076 | 39909 ft | 470 kts | 337° |
| 2026-04-23 07:29 | 63.19367 | 27.04771 | 39915 ft | 470 kts | 337° |
| 2026-04-23 07:29 | 63.25258 | 26.98440 | 39913 ft | 470 kts | 337° |
| 2026-04-23 07:30 | 63.31147 | 26.92082 | 39922 ft | 470 kts | 337° |
| 2026-04-23 07:30 | 63.37031 | 26.85699 | 39922 ft | 470 kts | 337° |
| 2026-04-23 07:31 | 63.42912 | 26.79292 | 39920 ft | 470 kts | 336° |
| 2026-04-23 07:31 | 63.48784 | 26.72864 | 39923 ft | 470 kts | 336° |
| 2026-04-23 07:32 | 63.54658 | 26.66404 | 39925 ft | 470 kts | 336° |
| 2026-04-23 07:32 | 63.60529 | 26.59919 | 39925 ft | 470 kts | 336° |
| 2026-04-23 07:33 | 63.66396 | 26.53407 | 39931 ft | 470 kts | 336° |
| 2026-04-23 07:33 | 63.72261 | 26.46868 | 39926 ft | 470 kts | 336° |
| 2026-04-23 07:34 | 63.78118 | 26.40306 | 39933 ft | 470 kts | 336° |
| 2026-04-23 07:34 | 63.83976 | 26.33714 | 39936 ft | 470 kts | 336° |
| 2026-04-23 07:35 | 63.89791 | 26.27138 | 39933 ft | 470 kts | 336° |
| 2026-04-23 07:35 | 63.95642 | 26.20491 | 39939 ft | 470 kts | 336° |
| 2026-04-23 07:36 | 64.01490 | 26.13817 | 39952 ft | 470 kts | 335° |
| 2026-04-23 07:36 | 64.07333 | 26.07116 | 39949 ft | 470 kts | 335° |
| 2026-04-23 07:37 | 64.13168 | 26.00392 | 39951 ft | 470 kts | 335° |
| 2026-04-23 07:37 | 64.19007 | 25.93633 | 39942 ft | 470 kts | 335° |
| 2026-04-23 07:38 | 64.24842 | 25.86846 | 39947 ft | 470 kts | 335° |
| 2026-04-23 07:38 | 64.30674 | 25.80030 | 39954 ft | 470 kts | 335° |
| 2026-04-23 07:39 | 64.36502 | 25.73187 | 39950 ft | 470 kts | 335° |
| 2026-04-23 07:39 | 64.42324 | 25.66316 | 39953 ft | 470 kts | 335° |
| 2026-04-23 07:40 | 64.48140 | 25.59421 | 39949 ft | 470 kts | 335° |
| 2026-04-23 07:40 | 64.53953 | 25.52495 | 39949 ft | 469 kts | 335° |
| 2026-04-23 07:41 | 64.59761 | 25.45543 | 39952 ft | 469 kts | 335° |
| 2026-04-23 07:41 | 64.65564 | 25.38562 | 39957 ft | 469 kts | 334° |
| 2026-04-23 07:42 | 64.71361 | 25.31555 | 39961 ft | 469 kts | 334° |
| 2026-04-23 07:42 | 64.77152 | 25.24521 | 39963 ft | 469 kts | 334° |
| 2026-04-23 07:43 | 64.82931 | 25.17467 | 39961 ft | 468 kts | 334° |
| 2026-04-23 07:43 | 64.88711 | 25.10378 | 39960 ft | 468 kts | 334° |
| 2026-04-23 07:44 | 64.94487 | 25.03260 | 39963 ft | 468 kts | 334° |
| 2026-04-23 07:44 | 65.00219 | 24.96159 | 39959 ft | 468 kts | 334° |
| 2026-04-23 07:45 | 65.05986 | 24.88982 | 39959 ft | 468 kts | 334° |
| 2026-04-23 07:45 | 65.11749 | 24.81774 | 39963 ft | 468 kts | 334° |
| 2026-04-23 07:46 | 65.17503 | 24.74541 | 39962 ft | 468 kts | 334° |
| 2026-04-23 07:46 | 65.23256 | 24.67274 | 39960 ft | 468 kts | 334° |
| 2026-04-23 07:47 | 65.29003 | 24.59978 | 39959 ft | 468 kts | 334° |
| 2026-04-23 07:47 | 65.34747 | 24.52650 | 39962 ft | 468 kts | 334° |
| 2026-04-23 07:48 | 65.40480 | 24.45299 | 39959 ft | 468 kts | 334° |
| 2026-04-23 07:48 | 65.46215 | 24.37909 | 39960 ft | 467 kts | 333° |
| 2026-04-23 07:49 | 65.51944 | 24.30489 | 39959 ft | 467 kts | 333° |
| 2026-04-23 07:49 | 65.57668 | 24.23038 | 39956 ft | 467 kts | 333° |
| 2026-04-23 07:50 | 65.63388 | 24.15556 | 39959 ft | 467 kts | 333° |
| 2026-04-23 07:50 | 65.69063 | 24.08093 | 39959 ft | 467 kts | 333° |
| 2026-04-23 07:51 | 65.74774 | 24.00548 | 39961 ft | 467 kts | 333° |
| 2026-04-23 07:51 | 65.80477 | 23.92972 | 39960 ft | 467 kts | 333° |
| 2026-04-23 07:52 | 65.86179 | 23.85360 | 39958 ft | 467 kts | 333° |
| 2026-04-23 07:52 | 65.91873 | 23.77720 | 39957 ft | 467 kts | 333° |
| 2026-04-23 07:53 | 65.97566 | 23.70043 | 39961 ft | 467 kts | 333° |
| 2026-04-23 07:53 | 66.03252 | 23.62334 | 39961 ft | 467 kts | 333° |
| 2026-04-23 07:54 | 66.08932 | 23.54595 | 39958 ft | 467 kts | 333° |
| 2026-04-23 07:54 | 66.14609 | 23.46818 | 39959 ft | 467 kts | 333° |
| 2026-04-23 07:55 | 66.20278 | 23.39014 | 39959 ft | 467 kts | 332° |
| 2026-04-23 07:55 | 66.25948 | 23.31167 | 39964 ft | 467 kts | 332° |
| 2026-04-23 07:56 | 66.31615 | 23.23285 | 39959 ft | 467 kts | 332° |
| 2026-04-23 07:56 | 66.37277 | 23.15367 | 39959 ft | 467 kts | 332° |
| 2026-04-23 07:57 | 66.42930 | 23.07420 | 39959 ft | 466 kts | 332° |
| 2026-04-23 07:57 | 66.48580 | 22.99435 | 39960 ft | 466 kts | 332° |
| 2026-04-23 07:58 | 66.54225 | 22.91416 | 39960 ft | 466 kts | 332° |
| 2026-04-23 07:58 | 66.59868 | 22.83358 | 39964 ft | 467 kts | 332° |
| 2026-04-23 07:59 | 66.65510 | 22.75259 | 39956 ft | 467 kts | 332° |
| 2026-04-23 07:59 | 66.71148 | 22.67122 | 39958 ft | 467 kts | 332° |
| 2026-04-23 08:00 | 66.76745 | 22.59000 | 39956 ft | 467 kts | 332° |
| 2026-04-23 08:00 | 66.82415 | 22.50730 | 39961 ft | 467 kts | 331° |
| 2026-04-23 08:01 | 66.88035 | 22.42488 | 39958 ft | 467 kts | 331° |
| 2026-04-23 08:01 | 66.93657 | 22.34198 | 39958 ft | 467 kts | 331° |
| 2026-04-23 08:02 | 66.99277 | 22.25868 | 39957 ft | 467 kts | 331° |
| 2026-04-23 08:02 | 67.04890 | 22.17501 | 39954 ft | 467 kts | 331° |
| 2026-04-23 08:03 | 67.10501 | 22.09095 | 39958 ft | 467 kts | 331° |
| 2026-04-23 08:03 | 67.16105 | 22.00650 | 39951 ft | 467 kts | 331° |
| 2026-04-23 08:04 | 67.21705 | 21.92167 | 39959 ft | 467 kts | 330° |
| 2026-04-23 08:04 | 67.27299 | 21.83647 | 39955 ft | 467 kts | 330° |
| 2026-04-23 08:05 | 67.32854 | 21.75140 | 39956 ft | 467 kts | 330° |
| 2026-04-23 08:05 | 67.38441 | 21.66536 | 39954 ft | 467 kts | 330° |
| 2026-04-23 08:06 | 67.44018 | 21.57900 | 39953 ft | 467 kts | 330° |
| 2026-04-23 08:06 | 67.49596 | 21.49215 | 39951 ft | 467 kts | 330° |
| 2026-04-23 08:07 | 67.55166 | 21.40495 | 39951 ft | 467 kts | 330° |
| 2026-04-23 08:07 | 67.60732 | 21.31733 | 39950 ft | 467 kts | 330° |
| 2026-04-23 08:08 | 67.66294 | 21.22929 | 39946 ft | 467 kts | 330° |
| 2026-04-23 08:08 | 67.71848 | 21.14086 | 39943 ft | 467 kts | 330° |
| 2026-04-23 08:09 | 67.77402 | 21.05195 | 39936 ft | 467 kts | 330° |
| 2026-04-23 08:09 | 67.82955 | 20.96255 | 39928 ft | 467 kts | 329° |
| 2026-04-23 08:10 | 67.88500 | 20.87279 | 39924 ft | 468 kts | 329° |
| 2026-04-23 08:10 | 67.96824 | 20.73707 | 39924 ft | 468 kts | 329° |
| 2026-04-23 08:11 | 68.02368 | 20.64601 | 39931 ft | 468 kts | 329° |
| 2026-04-23 08:11 | 68.06972 | 20.57002 | 39935 ft | 468 kts | 329° |
| 2026-04-23 08:12 | 68.12509 | 20.47814 | 39944 ft | 468 kts | 329° |
| 2026-04-23 08:12 | 68.18034 | 20.38593 | 39956 ft | 467 kts | 329° |
| 2026-04-23 08:13 | 68.23540 | 20.29351 | 39957 ft | 466 kts | 329° |
| 2026-04-23 08:13 | 68.29028 | 20.20087 | 39960 ft | 465 kts | 329° |
| 2026-04-23 08:14 | 68.34495 | 20.10802 | 39960 ft | 463 kts | 328° |
| 2026-04-23 08:14 | 68.39937 | 20.01510 | 39961 ft | 462 kts | 328° |
| 2026-04-23 08:15 | 68.45365 | 19.92187 | 39965 ft | 461 kts | 328° |
| 2026-04-23 08:15 | 68.50775 | 19.82842 | 39963 ft | 460 kts | 328° |
| 2026-04-23 08:16 | 68.56133 | 19.73533 | 39956 ft | 460 kts | 328° |
| 2026-04-23 08:16 | 68.61534 | 19.64096 | 39957 ft | 461 kts | 328° |
| 2026-04-23 08:17 | 68.66946 | 19.54585 | 39965 ft | 462 kts | 328° |
| 2026-04-23 08:17 | 68.72363 | 19.45007 | 39959 ft | 464 kts | 328° |
| 2026-04-23 08:18 | 68.77795 | 19.35347 | 39964 ft | 465 kts | 327° |
| 2026-04-23 08:18 | 68.83233 | 19.25621 | 39966 ft | 466 kts | 327° |
| 2026-04-23 08:19 | 68.88678 | 19.15822 | 39979 ft | 467 kts | 327° |
| 2026-04-23 08:19 | 68.94132 | 19.05949 | 39979 ft | 468 kts | 327° |
| 2026-04-23 08:20 | 68.99584 | 18.96020 | 39979 ft | 469 kts | 327° |
| 2026-04-23 08:20 | 69.05035 | 18.86035 | 39977 ft | 469 kts | 327° |
| 2026-04-23 08:21 | 69.10480 | 18.75999 | 39975 ft | 469 kts | 327° |
| 2026-04-23 08:21 | 69.15919 | 18.65912 | 39975 ft | 469 kts | 327° |
| 2026-04-23 08:22 | 69.21351 | 18.55777 | 39977 ft | 468 kts | 327° |
| 2026-04-23 08:22 | 69.26776 | 18.45595 | 39975 ft | 468 kts | 327° |
| 2026-04-23 08:23 | 69.32191 | 18.35367 | 39972 ft | 468 kts | 327° |
| 2026-04-23 08:23 | 69.37600 | 18.25090 | 39968 ft | 468 kts | 326° |
| 2026-04-23 08:24 | 69.42968 | 18.14826 | 39960 ft | 468 kts | 326° |
| 2026-04-23 08:24 | 69.48367 | 18.04441 | 39956 ft | 468 kts | 326° |
| 2026-04-23 08:25 | 69.53799 | 17.93926 | 39953 ft | 469 kts | 326° |
| 2026-04-23 08:25 | 69.59187 | 17.83434 | 39945 ft | 469 kts | 326° |
| 2026-04-23 08:26 | 69.64541 | 17.72939 | 39945 ft | 469 kts | 326° |
| 2026-04-23 08:26 | 69.69927 | 17.62317 | 39945 ft | 470 kts | 326° |
| 2026-04-23 08:27 | 69.75310 | 17.51634 | 39940 ft | 470 kts | 326° |
| 2026-04-23 08:27 | 69.80688 | 17.40895 | 39933 ft | 470 kts | 326° |
| 2026-04-23 08:28 | 69.86057 | 17.30104 | 39929 ft | 469 kts | 326° |
| 2026-04-23 08:28 | 69.91412 | 17.19275 | 39920 ft | 469 kts | 325° |
| 2026-04-23 08:29 | 69.96763 | 17.08383 | 39921 ft | 469 kts | 325° |
| 2026-04-23 08:29 | 70.02104 | 16.97442 | 39918 ft | 469 kts | 325° |
| 2026-04-23 08:30 | 70.07436 | 16.86450 | 39921 ft | 468 kts | 325° |
| 2026-04-23 08:30 | 70.12758 | 16.75409 | 39914 ft | 468 kts | 325° |
| 2026-04-23 08:31 | 70.18069 | 16.64318 | 39912 ft | 468 kts | 325° |
| 2026-04-23 08:31 | 70.23371 | 16.53176 | 39896 ft | 468 kts | 324° |
| 2026-04-23 08:32 | 70.28663 | 16.41981 | 39895 ft | 468 kts | 324° |
| 2026-04-23 08:32 | 70.33940 | 16.30747 | 39890 ft | 467 kts | 324° |
| 2026-04-23 08:33 | 70.39213 | 16.19449 | 39890 ft | 467 kts | 324° |
| 2026-04-23 08:33 | 70.44224 | 16.07169 | 39880 ft | 468 kts | 317° |
| 2026-04-23 08:34 | 70.48981 | 15.93920 | 39888 ft | 467 kts | 318° |
| 2026-04-23 08:34 | 70.53724 | 15.80669 | 39888 ft | 467 kts | 317° |
| 2026-04-23 08:35 | 70.58453 | 15.67319 | 39886 ft | 467 kts | 317° |
| 2026-04-23 08:35 | 70.63179 | 15.53929 | 39880 ft | 466 kts | 317° |
| 2026-04-23 08:36 | 70.67889 | 15.40463 | 39886 ft | 466 kts | 317° |
| 2026-04-23 08:36 | 70.72591 | 15.26946 | 39880 ft | 466 kts | 317° |
| 2026-04-23 08:37 | 70.77249 | 15.13454 | 39895 ft | 466 kts | 317° |
| 2026-04-23 08:37 | 70.81927 | 14.99817 | 39893 ft | 466 kts | 317° |
| 2026-04-23 08:38 | 70.86589 | 14.86133 | 39893 ft | 466 kts | 316° |
| 2026-04-23 08:38 | 70.91244 | 14.72374 | 39895 ft | 466 kts | 316° |
| 2026-04-23 08:39 | 70.95888 | 14.58553 | 39895 ft | 466 kts | 316° |
| 2026-04-23 08:39 | 71.00520 | 14.44669 | 39896 ft | 466 kts | 316° |
| 2026-04-23 08:40 | 71.05141 | 14.30725 | 39892 ft | 465 kts | 316° |
| 2026-04-23 08:40 | 71.09751 | 14.16716 | 39899 ft | 465 kts | 316° |
| 2026-04-23 08:41 | 71.14349 | 14.02646 | 39898 ft | 465 kts | 316° |
| 2026-04-23 08:41 | 71.18935 | 13.88513 | 39902 ft | 465 kts | 315° |
| 2026-04-23 08:42 | 71.23505 | 13.74334 | 39907 ft | 465 kts | 315° |
| 2026-04-23 08:42 | 71.28068 | 13.60072 | 39908 ft | 465 kts | 315° |
| 2026-04-23 08:43 | 71.32590 | 13.45839 | 39909 ft | 465 kts | 315° |
| 2026-04-23 08:43 | 71.37132 | 13.31444 | 39914 ft | 465 kts | 315° |
| 2026-04-23 08:44 | 71.41662 | 13.16982 | 39918 ft | 465 kts | 315° |
| 2026-04-23 08:44 | 71.46181 | 13.02452 | 39923 ft | 465 kts | 315° |
| 2026-04-23 08:45 | 71.50688 | 12.87858 | 39925 ft | 465 kts | 314° |
| 2026-04-23 08:45 | 71.55176 | 12.73219 | 39930 ft | 465 kts | 314° |
| 2026-04-23 08:46 | 71.59659 | 12.58492 | 39936 ft | 465 kts | 314° |
| 2026-04-23 08:46 | 71.64130 | 12.43695 | 39939 ft | 465 kts | 314° |
| 2026-04-23 08:47 | 71.68589 | 12.28833 | 39944 ft | 465 kts | 314° |
| 2026-04-23 08:47 | 71.73032 | 12.13911 | 39951 ft | 464 kts | 314° |
| 2026-04-23 08:48 | 71.77467 | 11.98913 | 39960 ft | 464 kts | 314° |
| 2026-04-23 08:48 | 71.81888 | 11.83848 | 39965 ft | 464 kts | 313° |
| 2026-04-23 08:49 | 71.86297 | 11.68716 | 39973 ft | 464 kts | 313° |
| 2026-04-23 08:49 | 71.90693 | 11.53513 | 39978 ft | 464 kts | 313° |
| 2026-04-23 08:50 | 71.95077 | 11.38239 | 39983 ft | 464 kts | 313° |
| 2026-04-23 08:50 | 71.99449 | 11.22894 | 39986 ft | 464 kts | 313° |
| 2026-04-23 08:51 | 72.03806 | 11.07488 | 39994 ft | 464 kts | 313° |
| 2026-04-23 08:51 | 72.08155 | 10.91997 | 39998 ft | 464 kts | 312° |
| 2026-04-23 08:52 | 72.12491 | 10.76432 | 40006 ft | 464 kts | 312° |
| 2026-04-23 08:52 | 72.16815 | 10.60793 | 40010 ft | 464 kts | 312° |
| 2026-04-23 08:53 | 72.21122 | 10.45098 | 40012 ft | 464 kts | 312° |
| 2026-04-23 08:53 | 72.25421 | 10.29310 | 40021 ft | 464 kts | 312° |
| 2026-04-23 08:54 | 72.29708 | 10.13447 | 40025 ft | 464 kts | 311° |
| 2026-04-23 08:54 | 72.33983 | 9.97507 | 40031 ft | 464 kts | 311° |
| 2026-04-23 08:55 | 72.38246 | 9.81491 | 40036 ft | 465 kts | 311° |
| 2026-04-23 08:55 | 72.42493 | 9.65406 | 40045 ft | 465 kts | 311° |
| 2026-04-23 08:56 | 72.46731 | 9.49235 | 40048 ft | 465 kts | 311° |
| 2026-04-23 08:56 | 72.50952 | 9.33002 | 40053 ft | 464 kts | 311° |
| 2026-04-23 08:57 | 72.55163 | 9.16677 | 40058 ft | 465 kts | 310° |
| 2026-04-23 08:57 | 72.59364 | 9.00268 | 40062 ft | 465 kts | 310° |
| 2026-04-23 08:58 | 72.63552 | 8.83776 | 40068 ft | 465 kts | 310° |
| 2026-04-23 08:58 | 72.67025 | 8.70002 | 40075 ft | 465 kts | 310° |
| 2026-04-23 08:59 | 72.71191 | 8.53357 | 40076 ft | 465 kts | 310° |
| 2026-04-23 08:59 | 72.75340 | 8.36648 | 40079 ft | 466 kts | 310° |
| 2026-04-23 09:00 | 72.79482 | 8.19832 | 40084 ft | 466 kts | 309° |
| 2026-04-23 09:00 | 72.83612 | 8.02932 | 40089 ft | 466 kts | 309° |
| 2026-04-23 09:01 | 72.87729 | 7.85945 | 40092 ft | 466 kts | 309° |
| 2026-04-23 09:01 | 72.91834 | 7.68874 | 40092 ft | 466 kts | 309° |
| 2026-04-23 09:02 | 72.95924 | 7.51722 | 40098 ft | 466 kts | 309° |
| 2026-04-23 09:02 | 72.99999 | 7.34491 | 40111 ft | 466 kts | 309° |
| 2026-04-23 09:03 | 73.04059 | 7.17187 | 40111 ft | 467 kts | 308° |
| 2026-04-23 09:03 | 73.08110 | 6.99776 | 40125 ft | 467 kts | 308° |
| 2026-04-23 09:04 | 73.12145 | 6.82285 | 40127 ft | 467 kts | 308° |
| 2026-04-23 09:04 | 73.16169 | 6.64702 | 40133 ft | 468 kts | 308° |
| 2026-04-23 09:05 | 73.20183 | 6.47011 | 40139 ft | 468 kts | 308° |
| 2026-04-23 09:05 | 73.24158 | 6.29347 | 40144 ft | 468 kts | 308° |
| 2026-04-23 09:06 | 73.28146 | 6.11475 | 40146 ft | 468 kts | 307° |
| 2026-04-23 09:06 | 73.32116 | 5.93528 | 40151 ft | 469 kts | 307° |
| 2026-04-23 09:07 | 73.36078 | 5.75469 | 40157 ft | 469 kts | 307° |
| 2026-04-23 09:07 | 73.40025 | 5.57319 | 40165 ft | 469 kts | 307° |
| 2026-04-23 09:08 | 73.43958 | 5.39078 | 40171 ft | 469 kts | 307° |
| 2026-04-23 09:08 | 73.47877 | 5.20741 | 40171 ft | 470 kts | 306° |
| 2026-04-23 09:09 | 73.51783 | 5.02310 | 40177 ft | 470 kts | 306° |
| 2026-04-23 09:09 | 73.55674 | 4.83783 | 40183 ft | 470 kts | 306° |
| 2026-04-23 09:10 | 73.61481 | 4.55832 | 40187 ft | 471 kts | 306° |
| 2026-04-23 09:11 | 73.65337 | 4.37064 | 40189 ft | 471 kts | 306° |
| 2026-04-23 09:11 | 73.69178 | 4.18202 | 40193 ft | 471 kts | 306° |
| 2026-04-23 09:12 | 73.72982 | 3.99355 | 40201 ft | 471 kts | 305° |
| 2026-04-23 09:12 | 73.76814 | 3.80192 | 40203 ft | 472 kts | 305° |
| 2026-04-23 09:13 | 73.80586 | 3.61165 | 40207 ft | 472 kts | 305° |
| 2026-04-23 09:13 | 73.84367 | 3.41913 | 40215 ft | 472 kts | 304° |
| 2026-04-23 09:14 | 73.88133 | 3.22566 | 40219 ft | 472 kts | 304° |
| 2026-04-23 09:14 | 73.91883 | 3.03118 | 40220 ft | 473 kts | 304° |
| 2026-04-23 09:15 | 73.95617 | 2.83581 | 40227 ft | 473 kts | 304° |
| 2026-04-23 09:15 | 73.99337 | 2.63928 | 40230 ft | 473 kts | 304° |
| 2026-04-23 09:16 | 74.03042 | 2.44172 | 40236 ft | 474 kts | 304° |
| 2026-04-23 09:16 | 74.06732 | 2.24309 | 40241 ft | 474 kts | 303° |
| 2026-04-23 09:17 | 74.10407 | 2.04342 | 40246 ft | 474 kts | 303° |
| 2026-04-23 09:17 | 74.14062 | 1.84289 | 40251 ft | 475 kts | 303° |
| 2026-04-23 09:18 | 74.17708 | 1.64101 | 40253 ft | 476 kts | 303° |
| 2026-04-23 09:18 | 74.21314 | 1.43936 | 40259 ft | 476 kts | 303° |
| 2026-04-23 09:19 | 74.24928 | 1.23527 | 40263 ft | 476 kts | 302° |
| 2026-04-23 09:19 | 74.28525 | 1.03019 | 40266 ft | 476 kts | 302° |
| 2026-04-23 09:20 | 74.32104 | 0.82414 | 40267 ft | 477 kts | 302° |
| 2026-04-23 09:20 | 74.35664 | 0.61713 | 40274 ft | 477 kts | 302° |
| 2026-04-23 09:21 | 74.39201 | 0.40940 | 40275 ft | 477 kts | 302° |
| 2026-04-23 09:21 | 74.42724 | 0.20047 | 40279 ft | 477 kts | 302° |
| 2026-04-23 09:22 | 74.46228 | -0.00949 | 40284 ft | 477 kts | 301° |
| 2026-04-23 09:22 | 74.49714 | -0.22051 | 40283 ft | 478 kts | 301° |
| 2026-04-23 09:23 | 74.53185 | -0.43268 | 40286 ft | 478 kts | 301° |
| 2026-04-23 09:23 | 74.56637 | -0.64594 | 40289 ft | 478 kts | 301° |
| 2026-04-23 09:24 | 74.60069 | -0.86015 | 40293 ft | 479 kts | 301° |
| 2026-04-23 09:24 | 74.63485 | -1.07555 | 40293 ft | 479 kts | 301° |
| 2026-04-23 09:25 | 74.66882 | -1.29196 | 40295 ft | 479 kts | 300° |
| 2026-04-23 09:25 | 74.70257 | -1.50931 | 40299 ft | 479 kts | 300° |
| 2026-04-23 09:26 | 74.73611 | -1.72757 | 40302 ft | 479 kts | 300° |
| 2026-04-23 09:26 | 74.76944 | -1.94682 | 40304 ft | 479 kts | 300° |
| 2026-04-23 09:27 | 74.80253 | -2.16673 | 40304 ft | 479 kts | 300° |
| 2026-04-23 09:27 | 74.83520 | -2.38630 | 40307 ft | 479 kts | 299° |
| 2026-04-23 09:28 | 74.86788 | -2.60826 | 40311 ft | 479 kts | 299° |
| 2026-04-23 09:28 | 74.90035 | -2.83116 | 40310 ft | 479 kts | 299° |
| 2026-04-23 09:29 | 74.93258 | -3.05491 | 40313 ft | 479 kts | 299° |
| 2026-04-23 09:29 | 74.96458 | -3.27952 | 40313 ft | 479 kts | 298° |
| 2026-04-23 09:30 | 74.99635 | -3.50506 | 40317 ft | 478 kts | 298° |
| 2026-04-23 09:30 | 75.02787 | -3.73122 | 40320 ft | 478 kts | 298° |
| 2026-04-23 09:31 | 75.05918 | -3.95850 | 40320 ft | 478 kts | 298° |
| 2026-04-23 09:31 | 75.09026 | -4.18664 | 40323 ft | 478 kts | 298° |
| 2026-04-23 09:32 | 75.12111 | -4.41563 | 40324 ft | 478 kts | 297° |
| 2026-04-23 09:32 | 75.15170 | -4.64544 | 40326 ft | 478 kts | 297° |
| 2026-04-23 09:33 | 75.18206 | -4.87605 | 40330 ft | 477 kts | 297° |
| 2026-04-23 09:33 | 75.21215 | -5.10732 | 40331 ft | 477 kts | 297° |
| 2026-04-23 09:34 | 75.24181 | -5.33796 | 40327 ft | 477 kts | 297° |
| 2026-04-23 09:34 | 75.27142 | -5.57089 | 40330 ft | 477 kts | 296° |
| 2026-04-23 09:35 | 75.30077 | -5.80457 | 40330 ft | 476 kts | 296° |
| 2026-04-23 09:35 | 75.32984 | -6.03873 | 40332 ft | 476 kts | 296° |
| 2026-04-23 09:36 | 75.35867 | -6.27386 | 40332 ft | 475 kts | 296° |
| 2026-04-23 09:36 | 75.38725 | -6.50967 | 40331 ft | 475 kts | 295° |
| 2026-04-23 09:37 | 75.41556 | -6.74618 | 40335 ft | 475 kts | 295° |
| 2026-04-23 09:37 | 75.44363 | -6.98355 | 40331 ft | 475 kts | 295° |
| 2026-04-23 09:38 | 75.47144 | -7.22166 | 40330 ft | 474 kts | 295° |
| 2026-04-23 09:38 | 75.49899 | -7.46051 | 40333 ft | 474 kts | 294° |
| 2026-04-23 09:39 | 75.52629 | -7.70010 | 40334 ft | 474 kts | 294° |
| 2026-04-23 09:39 | 75.55329 | -7.94015 | 40322 ft | 473 kts | 294° |
| 2026-04-23 09:40 | 75.58006 | -8.18115 | 40323 ft | 473 kts | 294° |
| 2026-04-23 09:40 | 75.60656 | -8.42284 | 40336 ft | 473 kts | 293° |
| 2026-04-23 09:41 | 75.63262 | -8.66363 | 40322 ft | 472 kts | 293° |
| 2026-04-23 09:41 | 75.65860 | -8.90672 | 40325 ft | 472 kts | 293° |
| 2026-04-23 09:42 | 75.68431 | -9.15055 | 40332 ft | 472 kts | 292° |
| 2026-04-23 09:42 | 75.70976 | -9.39510 | 40332 ft | 472 kts | 292° |
| 2026-04-23 09:43 | 75.73493 | -9.64019 | 40332 ft | 472 kts | 292° |
| 2026-04-23 09:43 | 75.75987 | -9.88635 | 40331 ft | 471 kts | 292° |
| 2026-04-23 09:44 | 75.78455 | -10.13327 | 40331 ft | 471 kts | 291° |
| 2026-04-23 09:44 | 75.80896 | -10.38093 | 40328 ft | 471 kts | 291° |
| 2026-04-23 09:45 | 75.83312 | -10.62937 | 40329 ft | 471 kts | 291° |
| 2026-04-23 09:45 | 75.85701 | -10.87858 | 40329 ft | 471 kts | 290° |
| 2026-04-23 09:46 | 75.88064 | -11.12853 | 40330 ft | 471 kts | 290° |
| 2026-04-23 09:46 | 75.90400 | -11.37921 | 40328 ft | 471 kts | 290° |
| 2026-04-23 09:47 | 75.92707 | -11.63034 | 40326 ft | 470 kts | 290° |
| 2026-04-23 09:47 | 75.94989 | -11.88246 | 40323 ft | 470 kts | 289° |
| 2026-04-23 09:48 | 75.97244 | -12.13519 | 40325 ft | 470 kts | 289° |
| 2026-04-23 09:48 | 75.99473 | -12.38881 | 40325 ft | 470 kts | 289° |
| 2026-04-23 09:49 | 76.01677 | -12.64333 | 40322 ft | 471 kts | 289° |
| 2026-04-23 09:49 | 76.03854 | -12.89873 | 40322 ft | 471 kts | 288° |
| 2026-04-23 09:50 | 76.05643 | -13.11149 | 40318 ft | 471 kts | 288° |
| 2026-04-23 09:50 | 76.07773 | -13.36843 | 40320 ft | 471 kts | 288° |
| 2026-04-23 09:51 | 76.09876 | -13.62620 | 40319 ft | 471 kts | 288° |
| 2026-04-23 09:51 | 76.11953 | -13.88482 | 40321 ft | 471 kts | 287° |
| 2026-04-23 09:52 | 76.14002 | -14.14408 | 40318 ft | 471 kts | 287° |
| 2026-04-23 09:52 | 76.16024 | -14.40424 | 40316 ft | 471 kts | 287° |
| 2026-04-23 09:53 | 76.18007 | -14.66342 | 40310 ft | 471 kts | 287° |
| 2026-04-23 09:53 | 76.19974 | -14.92506 | 40315 ft | 471 kts | 286° |
| 2026-04-23 09:54 | 76.21914 | -15.18738 | 40312 ft | 471 kts | 286° |
| 2026-04-23 09:54 | 76.23823 | -15.45007 | 40313 ft | 471 kts | 286° |
| 2026-04-23 09:55 | 76.25706 | -15.71374 | 40310 ft | 471 kts | 285° |
| 2026-04-23 09:55 | 76.27560 | -15.97799 | 40308 ft | 471 kts | 285° |
| 2026-04-23 09:56 | 76.29386 | -16.24295 | 40308 ft | 471 kts | 285° |
| 2026-04-23 09:56 | 76.31184 | -16.50854 | 40307 ft | 471 kts | 285° |
| 2026-04-23 09:57 | 76.32953 | -16.77475 | 40303 ft | 471 kts | 284° |
| 2026-04-23 09:57 | 76.34693 | -17.04158 | 40302 ft | 470 kts | 284° |
| 2026-04-23 09:58 | 76.36403 | -17.30900 | 40301 ft | 470 kts | 284° |
| 2026-04-23 09:58 | 76.38084 | -17.57673 | 40294 ft | 470 kts | 284° |
| 2026-04-23 09:59 | 76.39736 | -17.84528 | 40299 ft | 470 kts | 283° |
| 2026-04-23 09:59 | 76.41359 | -18.11434 | 40292 ft | 470 kts | 283° |
| 2026-04-23 10:00 | 76.42952 | -18.38392 | 40293 ft | 470 kts | 283° |
| 2026-04-23 10:00 | 76.44517 | -18.65411 | 40290 ft | 470 kts | 282° |
| 2026-04-23 10:01 | 76.46051 | -18.92482 | 40283 ft | 469 kts | 282° |
| 2026-04-23 10:01 | 76.47556 | -19.19590 | 40274 ft | 469 kts | 282° |
| 2026-04-23 10:02 | 76.49030 | -19.46751 | 40281 ft | 469 kts | 282° |
| 2026-04-23 10:02 | 76.50475 | -19.73957 | 40282 ft | 469 kts | 281° |
| 2026-04-23 10:03 | 76.51890 | -20.01205 | 40284 ft | 469 kts | 281° |
| 2026-04-23 10:03 | 76.53275 | -20.28503 | 40280 ft | 468 kts | 281° |
| 2026-04-23 10:04 | 76.54628 | -20.55798 | 40282 ft | 468 kts | 281° |
| 2026-04-23 10:04 | 76.55951 | -20.83156 | 40281 ft | 468 kts | 280° |
| 2026-04-23 10:05 | 76.57245 | -21.10567 | 40276 ft | 467 kts | 280° |
| 2026-04-23 10:05 | 76.58487 | -21.37529 | 40279 ft | 467 kts | 279° |
| 2026-04-23 10:06 | 76.59721 | -21.65014 | 40280 ft | 467 kts | 279° |
| 2026-04-23 10:06 | 76.60924 | -21.92535 | 40283 ft | 467 kts | 279° |
| 2026-04-23 10:07 | 76.61915 | -22.20178 | 40293 ft | 466 kts | 274° |
| 2026-04-23 10:07 | 76.62553 | -22.47841 | 40289 ft | 466 kts | 276° |
| 2026-04-23 10:08 | 76.63375 | -22.75632 | 40285 ft | 466 kts | 275° |
| 2026-04-23 10:08 | 76.64041 | -23.03498 | 40290 ft | 466 kts | 275° |
| 2026-04-23 10:09 | 76.65070 | -23.45275 | 40283 ft | 466 kts | 274° |
| 2026-04-23 10:09 | 76.65700 | -23.73183 | 40282 ft | 466 kts | 274° |
| 2026-04-23 10:10 | 76.66309 | -24.01103 | 40284 ft | 466 kts | 274° |
| 2026-04-23 10:10 | 76.66880 | -24.29044 | 40274 ft | 466 kts | 273° |
| 2026-04-23 10:11 | 76.67425 | -24.57013 | 40257 ft | 466 kts | 273° |
| 2026-04-23 10:11 | 76.67937 | -24.85008 | 40244 ft | 466 kts | 272° |
| 2026-04-23 10:12 | 76.68420 | -25.13025 | 40229 ft | 466 kts | 272° |
| 2026-04-23 10:12 | 76.68872 | -25.41085 | 40214 ft | 466 kts | 272° |
| 2026-04-23 10:13 | 76.69292 | -25.69132 | 40199 ft | 466 kts | 272° |
| 2026-04-23 10:13 | 76.69683 | -25.97253 | 40192 ft | 467 kts | 271° |
| 2026-04-23 10:14 | 76.70043 | -26.25390 | 40188 ft | 467 kts | 271° |
| 2026-04-23 10:14 | 76.70372 | -26.53560 | 40176 ft | 467 kts | 271° |
| 2026-04-23 10:15 | 76.70670 | -26.81730 | 40172 ft | 467 kts | 270° |
| 2026-04-23 10:15 | 76.70937 | -27.09968 | 40163 ft | 468 kts | 270° |
| 2026-04-23 10:16 | 76.71173 | -27.38249 | 40164 ft | 468 kts | 270° |
| 2026-04-23 10:16 | 76.71379 | -27.66567 | 40161 ft | 469 kts | 269° |
| 2026-04-23 10:17 | 76.71553 | -27.94927 | 40159 ft | 470 kts | 269° |
| 2026-04-23 10:17 | 76.71696 | -28.23330 | 40160 ft | 470 kts | 269° |
| 2026-04-23 10:18 | 76.71808 | -28.51777 | 40169 ft | 471 kts | 268° |
| 2026-04-23 10:18 | 76.71888 | -28.80226 | 40170 ft | 471 kts | 268° |
| 2026-04-23 10:19 | 76.71936 | -29.08748 | 40176 ft | 472 kts | 268° |
| 2026-04-23 10:19 | 76.71953 | -29.37276 | 40172 ft | 472 kts | 268° |
| 2026-04-23 10:20 | 76.71938 | -29.65822 | 40180 ft | 472 kts | 267° |
| 2026-04-23 10:20 | 76.71892 | -29.94352 | 40178 ft | 472 kts | 267° |
| 2026-04-23 10:21 | 76.71813 | -30.22924 | 40183 ft | 473 kts | 266° |
| 2026-04-23 10:21 | 76.71702 | -30.51502 | 40181 ft | 473 kts | 266° |
| 2026-04-23 10:22 | 76.71561 | -30.79883 | 40187 ft | 473 kts | 266° |
| 2026-04-23 10:22 | 76.71387 | -31.08444 | 40187 ft | 472 kts | 266° |
| 2026-04-23 10:23 | 76.71181 | -31.36997 | 40196 ft | 472 kts | 265° |
| 2026-04-23 10:23 | 76.70944 | -31.65537 | 40199 ft | 472 kts | 265° |
| 2026-04-23 10:24 | 76.70674 | -31.94032 | 40199 ft | 472 kts | 265° |
| 2026-04-23 10:24 | 76.70374 | -32.22539 | 40203 ft | 472 kts | 264° |
| 2026-04-23 10:25 | 76.70041 | -32.51024 | 40206 ft | 472 kts | 264° |
| 2026-04-23 10:25 | 76.69676 | -32.79500 | 40205 ft | 472 kts | 264° |
| 2026-04-23 10:26 | 76.69280 | -33.07957 | 40206 ft | 472 kts | 263° |
| 2026-04-23 10:26 | 76.68853 | -33.36397 | 40210 ft | 472 kts | 263° |
| 2026-04-23 10:27 | 76.68393 | -33.64816 | 40208 ft | 472 kts | 263° |
| 2026-04-23 10:27 | 76.67903 | -33.93188 | 40214 ft | 472 kts | 262° |
| 2026-04-23 10:28 | 76.67381 | -34.21563 | 40206 ft | 472 kts | 262° |
| 2026-04-23 10:28 | 76.66823 | -34.50061 | 40211 ft | 475 kts | 263° |
| 2026-04-23 10:29 | 76.66235 | -34.78579 | 40208 ft | 475 kts | 262° |
| 2026-04-23 10:29 | 76.65613 | -35.07083 | 40206 ft | 476 kts | 262° |
| 2026-04-23 10:30 | 76.64959 | -35.35573 | 40198 ft | 476 kts | 262° |
| 2026-04-23 10:30 | 76.64273 | -35.64052 | 40206 ft | 476 kts | 261° |
| 2026-04-23 10:31 | 76.63555 | -35.92516 | 40203 ft | 476 kts | 261° |
| 2026-04-23 10:31 | 76.62806 | -36.20938 | 40208 ft | 477 kts | 261° |
| 2026-04-23 10:32 | 76.62024 | -36.49374 | 40208 ft | 477 kts | 261° |
| 2026-04-23 10:32 | 76.61214 | -36.77610 | 40206 ft | 477 kts | 260° |
| 2026-04-23 10:33 | 76.60367 | -37.06016 | 40212 ft | 478 kts | 260° |
| 2026-04-23 10:33 | 76.59488 | -37.34408 | 40217 ft | 478 kts | 259° |
| 2026-04-23 10:34 | 76.58577 | -37.62783 | 40215 ft | 478 kts | 259° |
| 2026-04-23 10:34 | 76.57633 | -37.91138 | 40217 ft | 479 kts | 259° |
| 2026-04-23 10:35 | 76.56658 | -38.19441 | 40224 ft | 479 kts | 259° |
| 2026-04-23 10:35 | 76.55649 | -38.47753 | 40221 ft | 479 kts | 258° |
| 2026-04-23 10:36 | 76.54786 | -38.71274 | 40231 ft | 479 kts | 258° |
| 2026-04-23 10:36 | 76.53719 | -38.99527 | 40233 ft | 480 kts | 258° |
| 2026-04-23 10:37 | 76.52620 | -39.27768 | 40232 ft | 480 kts | 258° |
| 2026-04-23 10:37 | 76.51488 | -39.55976 | 40240 ft | 480 kts | 257° |
| 2026-04-23 10:38 | 76.50324 | -39.84157 | 40242 ft | 481 kts | 257° |
| 2026-04-23 10:38 | 76.49128 | -40.12303 | 40247 ft | 481 kts | 257° |
| 2026-04-23 10:39 | 76.47900 | -40.40412 | 40245 ft | 481 kts | 257° |
| 2026-04-23 10:39 | 76.46641 | -40.68451 | 40251 ft | 481 kts | 256° |
| 2026-04-23 10:40 | 76.45350 | -40.96481 | 40251 ft | 481 kts | 256° |
| 2026-04-23 10:40 | 76.44027 | -41.24469 | 40261 ft | 482 kts | 256° |
| 2026-04-23 10:41 | 76.42672 | -41.52415 | 40263 ft | 482 kts | 256° |
| 2026-04-23 10:41 | 76.41285 | -41.80319 | 40268 ft | 482 kts | 255° |
| 2026-04-23 10:42 | 76.39867 | -42.08177 | 40271 ft | 482 kts | 255° |
| 2026-04-23 10:42 | 76.38418 | -42.35988 | 40283 ft | 482 kts | 255° |
| 2026-04-23 10:43 | 76.36938 | -42.63724 | 40281 ft | 483 kts | 255° |
| 2026-04-23 10:43 | 76.35425 | -42.91449 | 40292 ft | 483 kts | 254° |
| 2026-04-23 10:44 | 76.33881 | -43.19127 | 40295 ft | 483 kts | 254° |
| 2026-04-23 10:44 | 76.32305 | -43.46763 | 40307 ft | 484 kts | 254° |
| 2026-04-23 10:45 | 76.30697 | -43.74351 | 40307 ft | 484 kts | 253° |
| 2026-04-23 10:45 | 76.29069 | -44.01707 | 40317 ft | 484 kts | 253° |
| 2026-04-23 10:46 | 76.27400 | -44.29194 | 40322 ft | 484 kts | 253° |
| 2026-04-23 10:46 | 76.25700 | -44.56600 | 40329 ft | 485 kts | 253° |
| 2026-04-23 10:47 | 76.23968 | -44.83985 | 40322 ft | 485 kts | 252° |
| 2026-04-23 10:47 | 76.22205 | -45.11312 | 40337 ft | 485 kts | 252° |
| 2026-04-23 10:48 | 76.20410 | -45.38583 | 40341 ft | 485 kts | 252° |
| 2026-04-23 10:48 | 76.18586 | -45.65794 | 40342 ft | 485 kts | 252° |
| 2026-04-23 10:49 | 76.16730 | -45.92946 | 40351 ft | 486 kts | 252° |
| 2026-04-23 10:49 | 76.14844 | -46.20032 | 40343 ft | 486 kts | 251° |
| 2026-04-23 10:50 | 76.12929 | -46.47046 | 40346 ft | 486 kts | 251° |
| 2026-04-23 10:50 | 76.10985 | -46.73972 | 40348 ft | 486 kts | 251° |
| 2026-04-23 10:51 | 76.09009 | -47.00860 | 40358 ft | 486 kts | 251° |
| 2026-04-23 10:51 | 76.07003 | -47.27680 | 40361 ft | 486 kts | 250° |
| 2026-04-23 10:52 | 76.04967 | -47.54432 | 40366 ft | 486 kts | 250° |
| 2026-04-23 10:52 | 76.02901 | -47.81113 | 40367 ft | 486 kts | 250° |
| 2026-04-23 10:53 | 76.00807 | -48.07720 | 40371 ft | 487 kts | 250° |
| 2026-04-23 10:53 | 75.98696 | -48.34081 | 40379 ft | 487 kts | 249° |
| 2026-04-23 10:54 | 75.96528 | -48.60722 | 40378 ft | 487 kts | 249° |
| 2026-04-23 10:54 | 75.94348 | -48.87084 | 40380 ft | 487 kts | 249° |
| 2026-04-23 10:55 | 75.92149 | -49.13241 | 40387 ft | 487 kts | 249° |
| 2026-04-23 10:55 | 75.89908 | -49.39487 | 40389 ft | 487 kts | 249° |
| 2026-04-23 10:56 | 75.87623 | -49.65829 | 40393 ft | 487 kts | 248° |
| 2026-04-23 10:56 | 75.85327 | -49.91883 | 40404 ft | 487 kts | 248° |
| 2026-04-23 10:57 | 75.83016 | -50.17723 | 40413 ft | 488 kts | 248° |
| 2026-04-23 10:57 | 75.80644 | -50.43835 | 40420 ft | 488 kts | 248° |
| 2026-04-23 10:58 | 75.78259 | -50.69693 | 40421 ft | 488 kts | 247° |
| 2026-04-23 10:58 | 75.75847 | -50.95471 | 40430 ft | 488 kts | 247° |
| 2026-04-23 10:59 | 75.73406 | -51.21168 | 40436 ft | 488 kts | 247° |
| 2026-04-23 10:59 | 75.70954 | -51.46616 | 40444 ft | 488 kts | 247° |
| 2026-04-23 11:00 | 75.68445 | -51.72286 | 40453 ft | 488 kts | 246° |
| 2026-04-23 11:00 | 75.65938 | -51.97561 | 40462 ft | 488 kts | 246° |
| 2026-04-23 11:01 | 75.63388 | -52.22925 | 40471 ft | 488 kts | 246° |
| 2026-04-23 11:01 | 75.60810 | -52.48200 | 40473 ft | 488 kts | 246° |
| 2026-04-23 11:02 | 75.58206 | -52.73383 | 40489 ft | 488 kts | 245° |
| 2026-04-23 11:02 | 75.55576 | -52.98472 | 40493 ft | 488 kts | 245° |
| 2026-04-23 11:03 | 75.52919 | -53.23474 | 40499 ft | 488 kts | 245° |
| 2026-04-23 11:03 | 75.50238 | -53.48359 | 40495 ft | 488 kts | 245° |
| 2026-04-23 11:04 | 75.47530 | -53.73173 | 40510 ft | 488 kts | 245° |
| 2026-04-23 11:04 | 75.44794 | -53.97907 | 40518 ft | 489 kts | 244° |
| 2026-04-23 11:05 | 75.42030 | -54.22578 | 40524 ft | 489 kts | 244° |
| 2026-04-23 11:05 | 75.39238 | -54.47165 | 40527 ft | 489 kts | 244° |
| 2026-04-23 11:06 | 75.35021 | -54.83715 | 40527 ft | 489 kts | 244° |
| 2026-04-23 11:07 | 75.32146 | -55.08237 | 40541 ft | 489 kts | 244° |
| 2026-04-23 11:07 | 75.29288 | -55.32314 | 40550 ft | 489 kts | 243° |
| 2026-04-23 11:08 | 75.26381 | -55.56501 | 40563 ft | 489 kts | 243° |
| 2026-04-23 11:08 | 75.23448 | -55.80597 | 40579 ft | 489 kts | 243° |
| 2026-04-23 11:09 | 75.20490 | -56.04602 | 40589 ft | 489 kts | 243° |
| 2026-04-23 11:09 | 75.17505 | -56.28529 | 40598 ft | 490 kts | 242° |
| 2026-04-23 11:10 | 75.14495 | -56.52369 | 40604 ft | 490 kts | 242° |
| 2026-04-23 11:10 | 75.11459 | -56.76121 | 40620 ft | 490 kts | 242° |
| 2026-04-23 11:11 | 75.08401 | -56.99764 | 40617 ft | 490 kts | 242° |
| 2026-04-23 11:11 | 75.05314 | -57.23342 | 40623 ft | 490 kts | 242° |
| 2026-04-23 11:12 | 75.02202 | -57.46839 | 40624 ft | 491 kts | 241° |
| 2026-04-23 11:12 | 74.99065 | -57.70246 | 40631 ft | 491 kts | 241° |
| 2026-04-23 11:13 | 74.95903 | -57.93567 | 40626 ft | 491 kts | 241° |
| 2026-04-23 11:13 | 74.92716 | -58.16797 | 40627 ft | 491 kts | 240° |
| 2026-04-23 11:14 | 74.89506 | -58.39935 | 40631 ft | 491 kts | 240° |
| 2026-04-23 11:14 | 74.86270 | -58.62983 | 40630 ft | 491 kts | 240° |
| 2026-04-23 11:15 | 74.83014 | -58.85926 | 40635 ft | 491 kts | 240° |
| 2026-04-23 11:15 | 74.79752 | -59.08645 | 40631 ft | 492 kts | 240° |
| 2026-04-23 11:16 | 74.76445 | -59.31424 | 40632 ft | 492 kts | 239° |
| 2026-04-23 11:16 | 74.73118 | -59.54086 | 40632 ft | 492 kts | 239° |
| 2026-04-23 11:17 | 74.69764 | -59.76678 | 40630 ft | 492 kts | 239° |
| 2026-04-23 11:17 | 74.66388 | -59.99178 | 40630 ft | 492 kts | 239° |
| 2026-04-23 11:18 | 74.62989 | -60.21577 | 40635 ft | 492 kts | 239° |
| 2026-04-23 11:18 | 74.59566 | -60.43888 | 40638 ft | 492 kts | 238° |
| 2026-04-23 11:19 | 74.56122 | -60.66104 | 40639 ft | 492 kts | 238° |
| 2026-04-23 11:19 | 74.52654 | -60.88226 | 40642 ft | 492 kts | 238° |
| 2026-04-23 11:20 | 74.49169 | -61.10229 | 40644 ft | 492 kts | 238° |
| 2026-04-23 11:20 | 74.45658 | -61.32161 | 40646 ft | 492 kts | 238° |
| 2026-04-23 11:21 | 74.42126 | -61.53990 | 40635 ft | 492 kts | 237° |
| 2026-04-23 11:21 | 74.38571 | -61.75731 | 40641 ft | 492 kts | 237° |
| 2026-04-23 11:22 | 74.35018 | -61.97237 | 40641 ft | 492 kts | 237° |
| 2026-04-23 11:22 | 74.31420 | -62.18794 | 40645 ft | 492 kts | 237° |
| 2026-04-23 11:23 | 74.27800 | -62.40255 | 40645 ft | 492 kts | 237° |
| 2026-04-23 11:23 | 74.24164 | -62.61596 | 40644 ft | 492 kts | 237° |
| 2026-04-23 11:24 | 74.20502 | -62.82868 | 40651 ft | 492 kts | 236° |
| 2026-04-23 11:24 | 74.16819 | -63.04045 | 40650 ft | 492 kts | 236° |
| 2026-04-23 11:25 | 74.13742 | -63.21583 | 40653 ft | 493 kts | 236° |
| 2026-04-23 11:25 | 74.10020 | -63.42589 | 40655 ft | 493 kts | 236° |
| 2026-04-23 11:26 | 74.06282 | -63.63484 | 40658 ft | 493 kts | 236° |
| 2026-04-23 11:26 | 74.02520 | -63.84308 | 40659 ft | 493 kts | 235° |
| 2026-04-23 11:27 | 73.98737 | -64.05035 | 40664 ft | 493 kts | 235° |
| 2026-04-23 11:27 | 73.94934 | -64.25673 | 40664 ft | 493 kts | 235° |
| 2026-04-23 11:28 | 73.91112 | -64.46213 | 40661 ft | 493 kts | 235° |
| 2026-04-23 11:28 | 73.87269 | -64.66660 | 40665 ft | 493 kts | 234° |
| 2026-04-23 11:29 | 73.83408 | -64.87011 | 40669 ft | 493 kts | 234° |
| 2026-04-23 11:29 | 73.79527 | -65.07268 | 40671 ft | 493 kts | 234° |
| 2026-04-23 11:30 | 73.75631 | -65.27410 | 40672 ft | 493 kts | 234° |
| 2026-04-23 11:30 | 73.71711 | -65.47482 | 40676 ft | 493 kts | 234° |
| 2026-04-23 11:31 | 73.67773 | -65.67458 | 40678 ft | 493 kts | 233° |
| 2026-04-23 11:31 | 73.63842 | -65.87210 | 40680 ft | 493 kts | 233° |
| 2026-04-23 11:32 | 73.59842 | -66.07123 | 40678 ft | 493 kts | 233° |
| 2026-04-23 11:32 | 73.55874 | -66.26695 | 40680 ft | 493 kts | 233° |
| 2026-04-23 11:33 | 73.51860 | -66.46303 | 40682 ft | 493 kts | 233° |
| 2026-04-23 11:33 | 73.47829 | -66.65823 | 40681 ft | 493 kts | 233° |
| 2026-04-23 11:34 | 73.43778 | -66.85251 | 40686 ft | 493 kts | 232° |
| 2026-04-23 11:34 | 73.39710 | -67.04586 | 40688 ft | 493 kts | 232° |
| 2026-04-23 11:35 | 73.35624 | -67.23829 | 40689 ft | 493 kts | 232° |
| 2026-04-23 11:35 | 73.31525 | -67.42962 | 40690 ft | 493 kts | 232° |
| 2026-04-23 11:36 | 73.27404 | -67.62021 | 40691 ft | 493 kts | 232° |
| 2026-04-23 11:36 | 73.23266 | -67.80989 | 40691 ft | 493 kts | 231° |
| 2026-04-23 11:37 | 73.19110 | -67.99866 | 40685 ft | 493 kts | 231° |
| 2026-04-23 11:37 | 73.14938 | -68.18651 | 40690 ft | 493 kts | 231° |
| 2026-04-23 11:38 | 73.10749 | -68.37342 | 40689 ft | 493 kts | 231° |
| 2026-04-23 11:38 | 73.06543 | -68.55948 | 40692 ft | 493 kts | 231° |
| 2026-04-23 11:39 | 73.02320 | -68.74458 | 40695 ft | 493 kts | 231° |
| 2026-04-23 11:39 | 72.98086 | -68.92863 | 40693 ft | 493 kts | 230° |
| 2026-04-23 11:40 | 72.93829 | -69.11201 | 40694 ft | 493 kts | 230° |
| 2026-04-23 11:40 | 72.89556 | -69.29450 | 40694 ft | 493 kts | 230° |
| 2026-04-23 11:41 | 72.85267 | -69.47612 | 40693 ft | 493 kts | 230° |
| 2026-04-23 11:41 | 72.80964 | -69.65675 | 40693 ft | 493 kts | 230° |
| 2026-04-23 11:42 | 72.76672 | -69.83542 | 40699 ft | 493 kts | 230° |
| 2026-04-23 11:42 | 72.72333 | -70.01446 | 40696 ft | 493 kts | 230° |
| 2026-04-23 11:43 | 72.67979 | -70.19265 | 40699 ft | 493 kts | 229° |
| 2026-04-23 11:43 | 72.63608 | -70.37000 | 40698 ft | 493 kts | 229° |
| 2026-04-23 11:44 | 72.59221 | -70.54650 | 40696 ft | 493 kts | 229° |
| 2026-04-23 11:44 | 72.54824 | -70.72191 | 40699 ft | 493 kts | 229° |
| 2026-04-23 11:45 | 72.50407 | -70.89667 | 40696 ft | 494 kts | 229° |
| 2026-04-23 11:45 | 72.45972 | -71.07068 | 40694 ft | 494 kts | 229° |
| 2026-04-23 11:46 | 72.41521 | -71.24387 | 40697 ft | 494 kts | 229° |
| 2026-04-23 11:46 | 72.37053 | -71.41626 | 40694 ft | 494 kts | 228° |
| 2026-04-23 11:47 | 72.32570 | -71.58784 | 40696 ft | 494 kts | 228° |
| 2026-04-23 11:47 | 72.28071 | -71.75861 | 40694 ft | 494 kts | 228° |
| 2026-04-23 11:48 | 72.23563 | -71.92836 | 40690 ft | 494 kts | 228° |
| 2026-04-23 11:48 | 72.19034 | -72.09748 | 40690 ft | 494 kts | 228° |
| 2026-04-23 11:49 | 72.14523 | -72.26462 | 40693 ft | 494 kts | 227° |
| 2026-04-23 11:49 | 72.09966 | -72.43205 | 40691 ft | 494 kts | 227° |
| 2026-04-23 11:50 | 72.05396 | -72.59863 | 40686 ft | 494 kts | 227° |
| 2026-04-23 11:50 | 72.00814 | -72.76436 | 40688 ft | 494 kts | 227° |
| 2026-04-23 11:51 | 71.96219 | -72.92919 | 40686 ft | 493 kts | 227° |
| 2026-04-23 11:51 | 71.91609 | -73.09326 | 40686 ft | 494 kts | 227° |
| 2026-04-23 11:52 | 71.86988 | -73.25640 | 40689 ft | 494 kts | 227° |
| 2026-04-23 11:52 | 71.82348 | -73.41894 | 40690 ft | 494 kts | 226° |
| 2026-04-23 11:53 | 71.77693 | -73.58074 | 40686 ft | 494 kts | 226° |
| 2026-04-23 11:53 | 71.73026 | -73.74168 | 40688 ft | 494 kts | 226° |
| 2026-04-23 11:54 | 71.68341 | -73.90200 | 40695 ft | 495 kts | 226° |
| 2026-04-23 11:54 | 71.63642 | -74.06153 | 40697 ft | 495 kts | 226° |
| 2026-04-23 11:55 | 71.58927 | -74.22038 | 40701 ft | 495 kts | 226° |
| 2026-04-23 11:55 | 71.54194 | -74.37860 | 40711 ft | 495 kts | 226° |
| 2026-04-23 11:56 | 71.49444 | -74.53617 | 40719 ft | 496 kts | 226° |
| 2026-04-23 11:56 | 71.44712 | -74.69195 | 40728 ft | 496 kts | 225° |
| 2026-04-23 11:57 | 71.39936 | -74.84796 | 40736 ft | 496 kts | 225° |
| 2026-04-23 11:57 | 71.35140 | -75.00345 | 40744 ft | 496 kts | 225° |
| 2026-04-23 11:58 | 71.30332 | -75.15817 | 40755 ft | 497 kts | 225° |
| 2026-04-23 11:58 | 71.25509 | -75.31213 | 40760 ft | 496 kts | 225° |
| 2026-04-23 11:59 | 71.20677 | -75.46527 | 40767 ft | 496 kts | 225° |
| 2026-04-23 11:59 | 71.15833 | -75.61765 | 40771 ft | 496 kts | 225° |
| 2026-04-23 12:00 | 71.10977 | -75.76925 | 40772 ft | 496 kts | 225° |
| 2026-04-23 12:00 | 71.06114 | -75.91991 | 40780 ft | 496 kts | 224° |
| 2026-04-23 12:01 | 71.01237 | -76.06992 | 40779 ft | 496 kts | 224° |
| 2026-04-23 12:01 | 70.96347 | -76.21920 | 40768 ft | 496 kts | 224° |
| 2026-04-23 12:02 | 70.91446 | -76.36771 | 40781 ft | 496 kts | 224° |
| 2026-04-23 12:02 | 70.86533 | -76.51550 | 40769 ft | 496 kts | 224° |
| 2026-04-23 12:03 | 70.81610 | -76.66250 | 40763 ft | 496 kts | 224° |
| 2026-04-23 12:03 | 70.76673 | -76.80887 | 40778 ft | 496 kts | 224° |
| 2026-04-23 12:04 | 70.71758 | -76.95352 | 40777 ft | 496 kts | 224° |
| 2026-04-23 12:04 | 70.66798 | -77.09844 | 40784 ft | 496 kts | 224° |
| 2026-04-23 12:05 | 70.61821 | -77.24279 | 40781 ft | 497 kts | 223° |
| 2026-04-23 12:05 | 70.56829 | -77.38655 | 40779 ft | 497 kts | 223° |
| 2026-04-23 12:06 | 70.51824 | -77.52965 | 40781 ft | 497 kts | 223° |
| 2026-04-23 12:06 | 70.44299 | -77.74289 | 40778 ft | 497 kts | 223° |
| 2026-04-23 12:07 | 70.39264 | -77.88430 | 40772 ft | 497 kts | 223° |
| 2026-04-23 12:07 | 70.34217 | -78.02502 | 40770 ft | 497 kts | 223° |
| 2026-04-23 12:08 | 70.29159 | -78.16508 | 40765 ft | 498 kts | 223° |
| 2026-04-23 12:08 | 70.24086 | -78.30455 | 40762 ft | 498 kts | 223° |
| 2026-04-23 12:09 | 70.19000 | -78.44339 | 40764 ft | 498 kts | 222° |
| 2026-04-23 12:09 | 70.13903 | -78.58157 | 40762 ft | 498 kts | 222° |
| 2026-04-23 12:10 | 70.08799 | -78.71898 | 40760 ft | 498 kts | 222° |
| 2026-04-23 12:10 | 70.03678 | -78.85585 | 40758 ft | 498 kts | 222° |
| 2026-04-23 12:11 | 69.98545 | -78.99213 | 40755 ft | 499 kts | 222° |
| 2026-04-23 12:11 | 69.93401 | -79.12772 | 40755 ft | 499 kts | 222° |
| 2026-04-23 12:12 | 69.88277 | -79.26188 | 40752 ft | 499 kts | 222° |
| 2026-04-23 12:12 | 69.83107 | -79.39632 | 40752 ft | 499 kts | 221° |
| 2026-04-23 12:13 | 69.77924 | -79.53015 | 40751 ft | 499 kts | 221° |
| 2026-04-23 12:13 | 69.72732 | -79.66331 | 40748 ft | 499 kts | 221° |
| 2026-04-23 12:14 | 69.67527 | -79.79591 | 40748 ft | 500 kts | 221° |
| 2026-04-23 12:14 | 69.62308 | -79.92795 | 40741 ft | 500 kts | 221° |
| 2026-04-23 12:15 | 69.57083 | -80.05925 | 40739 ft | 500 kts | 221° |
| 2026-04-23 12:15 | 69.51840 | -80.19007 | 40735 ft | 500 kts | 221° |
| 2026-04-23 12:16 | 69.47472 | -80.29842 | 40736 ft | 500 kts | 221° |
| 2026-04-23 12:16 | 69.42209 | -80.42817 | 40731 ft | 501 kts | 221° |
| 2026-04-23 12:17 | 69.36934 | -80.55732 | 40731 ft | 501 kts | 221° |
| 2026-04-23 12:17 | 69.31648 | -80.68591 | 40733 ft | 501 kts | 220° |
| 2026-04-23 12:18 | 69.26357 | -80.81373 | 40726 ft | 501 kts | 220° |
| 2026-04-23 12:18 | 69.21049 | -80.94114 | 40718 ft | 501 kts | 220° |
| 2026-04-23 12:19 | 69.15730 | -81.06793 | 40716 ft | 501 kts | 220° |
| 2026-04-23 12:19 | 69.10401 | -81.19415 | 40717 ft | 501 kts | 220° |
| 2026-04-23 12:20 | 69.05061 | -81.31978 | 40715 ft | 502 kts | 220° |
| 2026-04-23 12:20 | 68.99709 | -81.44487 | 40712 ft | 502 kts | 220° |
| 2026-04-23 12:21 | 68.94346 | -81.56939 | 40712 ft | 502 kts | 220° |
| 2026-04-23 12:21 | 68.88979 | -81.69320 | 40713 ft | 502 kts | 220° |
| 2026-04-23 12:22 | 68.83592 | -81.81666 | 40709 ft | 502 kts | 220° |
| 2026-04-23 12:22 | 68.78198 | -81.93949 | 40707 ft | 502 kts | 219° |
| 2026-04-23 12:23 | 68.72794 | -82.06174 | 40700 ft | 502 kts | 219° |
| 2026-04-23 12:23 | 68.67385 | -82.18331 | 40699 ft | 503 kts | 219° |
| 2026-04-23 12:24 | 68.61960 | -82.30447 | 40693 ft | 503 kts | 219° |
| 2026-04-23 12:24 | 68.56525 | -82.42506 | 40696 ft | 503 kts | 219° |
| 2026-04-23 12:25 | 68.51080 | -82.54511 | 40696 ft | 503 kts | 219° |
| 2026-04-23 12:25 | 68.45625 | -82.66459 | 40697 ft | 503 kts | 219° |
| 2026-04-23 12:26 | 68.40160 | -82.78357 | 40701 ft | 503 kts | 219° |
| 2026-04-23 12:26 | 68.34683 | -82.90200 | 40703 ft | 504 kts | 219° |
| 2026-04-23 12:27 | 68.29203 | -83.01979 | 40702 ft | 504 kts | 219° |
| 2026-04-23 12:27 | 68.23705 | -83.13720 | 40707 ft | 504 kts | 219° |
| 2026-04-23 12:28 | 68.18234 | -83.25332 | 40707 ft | 504 kts | 218° |
| 2026-04-23 12:28 | 68.12715 | -83.36970 | 40716 ft | 504 kts | 218° |
| 2026-04-23 12:29 | 68.07187 | -83.48556 | 40712 ft | 505 kts | 218° |
| 2026-04-23 12:29 | 68.01649 | -83.60091 | 40711 ft | 505 kts | 218° |
| 2026-04-23 12:30 | 67.96101 | -83.71574 | 40708 ft | 505 kts | 218° |
| 2026-04-23 12:30 | 67.90549 | -83.82994 | 40711 ft | 505 kts | 218° |
| 2026-04-23 12:31 | 67.84981 | -83.94375 | 40709 ft | 505 kts | 218° |
| 2026-04-23 12:31 | 67.79404 | -84.05706 | 40715 ft | 505 kts | 218° |
| 2026-04-23 12:32 | 67.73817 | -84.16987 | 40714 ft | 506 kts | 218° |
| 2026-04-23 12:32 | 67.68221 | -84.28216 | 40711 ft | 506 kts | 218° |
| 2026-04-23 12:33 | 67.62616 | -84.39397 | 40710 ft | 506 kts | 218° |
| 2026-04-23 12:33 | 67.57000 | -84.50528 | 40705 ft | 506 kts | 218° |
| 2026-04-23 12:34 | 67.51375 | -84.61611 | 40704 ft | 506 kts | 217° |
| 2026-04-23 12:34 | 67.45747 | -84.72632 | 40705 ft | 506 kts | 217° |
| 2026-04-23 12:35 | 67.40102 | -84.83618 | 40707 ft | 506 kts | 217° |
| 2026-04-23 12:35 | 67.34451 | -84.94551 | 40704 ft | 506 kts | 217° |
| 2026-04-23 12:36 | 67.28789 | -85.05439 | 40704 ft | 507 kts | 217° |
| 2026-04-23 12:36 | 67.23116 | -85.16283 | 40701 ft | 507 kts | 217° |
| 2026-04-23 12:37 | 67.17433 | -85.27081 | 40702 ft | 507 kts | 217° |
| 2026-04-23 12:37 | 67.11741 | -85.37831 | 40702 ft | 508 kts | 217° |
| 2026-04-23 12:38 | 67.06045 | -85.48526 | 40698 ft | 508 kts | 217° |
| 2026-04-23 12:38 | 67.00333 | -85.59186 | 40694 ft | 508 kts | 217° |
| 2026-04-23 12:39 | 66.94609 | -85.69806 | 40694 ft | 508 kts | 217° |
| 2026-04-23 12:39 | 66.89225 | -85.81363 | 40724 ft | 507 kts | 229° |
| 2026-04-23 12:40 | 66.84587 | -85.94908 | 40705 ft | 508 kts | 227° |
| 2026-04-23 12:40 | 66.79743 | -86.07962 | 40692 ft | 508 kts | 227° |
| 2026-04-23 12:41 | 66.75029 | -86.21141 | 40684 ft | 508 kts | 227° |
| 2026-04-23 12:41 | 66.70178 | -86.34306 | 40678 ft | 508 kts | 227° |
| 2026-04-23 12:42 | 66.65417 | -86.47304 | 40676 ft | 508 kts | 227° |
| 2026-04-23 12:42 | 66.60592 | -86.60323 | 40675 ft | 508 kts | 227° |
| 2026-04-23 12:43 | 66.55761 | -86.73306 | 40677 ft | 508 kts | 227° |
| 2026-04-23 12:43 | 66.50918 | -86.86237 | 40680 ft | 508 kts | 227° |
| 2026-04-23 12:44 | 66.46063 | -86.99118 | 40681 ft | 509 kts | 227° |
| 2026-04-23 12:44 | 66.41198 | -87.11952 | 40685 ft | 508 kts | 227° |
| 2026-04-23 12:45 | 66.36321 | -87.24733 | 40681 ft | 508 kts | 227° |
| 2026-04-23 12:45 | 66.31440 | -87.37455 | 40681 ft | 509 kts | 227° |
| 2026-04-23 12:46 | 66.26540 | -87.50145 | 40680 ft | 509 kts | 227° |
| 2026-04-23 12:46 | 66.21630 | -87.62787 | 40678 ft | 509 kts | 226° |
| 2026-04-23 12:47 | 66.16710 | -87.75381 | 40676 ft | 509 kts | 226° |
| 2026-04-23 12:47 | 66.11779 | -87.87925 | 40675 ft | 509 kts | 226° |
| 2026-04-23 12:48 | 66.06838 | -88.00421 | 40670 ft | 509 kts | 226° |
| 2026-04-23 12:48 | 66.01889 | -88.12863 | 40677 ft | 508 kts | 226° |
| 2026-04-23 12:49 | 65.96936 | -88.25244 | 40670 ft | 509 kts | 226° |
| 2026-04-23 12:49 | 65.91964 | -88.37596 | 40660 ft | 509 kts | 226° |
| 2026-04-23 12:50 | 65.86983 | -88.49901 | 40657 ft | 509 kts | 226° |
| 2026-04-23 12:50 | 65.82025 | -88.62077 | 40661 ft | 509 kts | 226° |
| 2026-04-23 12:51 | 65.77023 | -88.74287 | 40657 ft | 509 kts | 226° |
| 2026-04-23 12:51 | 65.72015 | -88.86445 | 40646 ft | 509 kts | 226° |
| 2026-04-23 12:52 | 65.66995 | -88.98560 | 40649 ft | 509 kts | 226° |
| 2026-04-23 12:52 | 65.61967 | -89.10623 | 40647 ft | 509 kts | 226° |
| 2026-04-23 12:53 | 65.56929 | -89.22642 | 40644 ft | 509 kts | 226° |
| 2026-04-23 12:53 | 65.51882 | -89.34612 | 40644 ft | 509 kts | 225° |
| 2026-04-23 12:54 | 65.46827 | -89.46534 | 40645 ft | 509 kts | 225° |
| 2026-04-23 12:54 | 65.41769 | -89.58397 | 40641 ft | 508 kts | 225° |
| 2026-04-23 12:55 | 65.36697 | -89.70222 | 40641 ft | 508 kts | 225° |
| 2026-04-23 12:55 | 65.31618 | -89.81997 | 40638 ft | 508 kts | 225° |
| 2026-04-23 12:56 | 65.26530 | -89.93725 | 40635 ft | 508 kts | 225° |
| 2026-04-23 12:56 | 65.21437 | -90.05402 | 40634 ft | 508 kts | 225° |
| 2026-04-23 12:57 | 65.16334 | -90.17034 | 40631 ft | 508 kts | 225° |
| 2026-04-23 12:57 | 65.11222 | -90.28622 | 40628 ft | 508 kts | 225° |
| 2026-04-23 12:58 | 65.06103 | -90.40160 | 40624 ft | 508 kts | 225° |
| 2026-04-23 12:58 | 65.00982 | -90.51640 | 40620 ft | 507 kts | 225° |
| 2026-04-23 12:59 | 64.95849 | -90.63080 | 40620 ft | 507 kts | 225° |
| 2026-04-23 12:59 | 64.90709 | -90.74476 | 40617 ft | 507 kts | 225° |
| 2026-04-23 13:00 | 64.85561 | -90.85825 | 40610 ft | 507 kts | 225° |
| 2026-04-23 13:00 | 64.81276 | -90.95224 | 40609 ft | 507 kts | 225° |
| 2026-04-23 13:01 | 64.75280 | -91.08307 | 40612 ft | 507 kts | 224° |
| 2026-04-23 13:01 | 64.70954 | -91.17692 | 40616 ft | 506 kts | 224° |
| 2026-04-23 13:02 | 64.65781 | -91.28862 | 40610 ft | 506 kts | 224° |
| 2026-04-23 13:02 | 64.60601 | -91.39983 | 40602 ft | 506 kts | 224° |
| 2026-04-23 13:03 | 64.55415 | -91.51058 | 40590 ft | 506 kts | 224° |
| 2026-04-23 13:03 | 64.50223 | -91.62087 | 40600 ft | 505 kts | 224° |
| 2026-04-23 13:04 | 64.45026 | -91.73066 | 40593 ft | 505 kts | 224° |
| 2026-04-23 13:04 | 64.39829 | -91.83988 | 40594 ft | 505 kts | 224° |
| 2026-04-23 13:05 | 64.34616 | -91.94883 | 40587 ft | 505 kts | 224° |
| 2026-04-23 13:05 | 64.29397 | -92.05733 | 40586 ft | 505 kts | 224° |
| 2026-04-23 13:06 | 64.21593 | -92.21851 | 40577 ft | 505 kts | 224° |
| 2026-04-23 13:07 | 64.16358 | -92.32593 | 40577 ft | 505 kts | 224° |
| 2026-04-23 13:07 | 64.11115 | -92.43294 | 40579 ft | 505 kts | 224° |
| 2026-04-23 13:08 | 64.05866 | -92.53949 | 40572 ft | 504 kts | 224° |
| 2026-04-23 13:08 | 64.00618 | -92.64549 | 40569 ft | 504 kts | 224° |
| 2026-04-23 13:09 | 63.95357 | -92.75119 | 40565 ft | 504 kts | 223° |
| 2026-04-23 13:09 | 63.90090 | -92.85645 | 40566 ft | 504 kts | 223° |
| 2026-04-23 13:10 | 63.84817 | -92.96129 | 40565 ft | 504 kts | 223° |
| 2026-04-23 13:10 | 63.79537 | -93.06574 | 40561 ft | 504 kts | 223° |
| 2026-04-23 13:11 | 63.74249 | -93.16978 | 40560 ft | 504 kts | 223° |
| 2026-04-23 13:11 | 63.68956 | -93.27341 | 40555 ft | 504 kts | 223° |
| 2026-04-23 13:12 | 63.63662 | -93.37650 | 40557 ft | 503 kts | 223° |
| 2026-04-23 13:12 | 63.58358 | -93.47929 | 40551 ft | 503 kts | 223° |
| 2026-04-23 13:13 | 63.53046 | -93.58170 | 40551 ft | 503 kts | 223° |
| 2026-04-23 13:13 | 63.47729 | -93.68367 | 40550 ft | 503 kts | 223° |
| 2026-04-23 13:14 | 63.42415 | -93.78508 | 40548 ft | 503 kts | 223° |
| 2026-04-23 13:14 | 63.37091 | -93.88616 | 40544 ft | 502 kts | 223° |
| 2026-04-23 13:15 | 63.31763 | -93.98682 | 40555 ft | 502 kts | 223° |
| 2026-04-23 13:15 | 63.26431 | -94.08705 | 40549 ft | 502 kts | 222° |
| 2026-04-23 13:16 | 63.21131 | -94.18617 | 40544 ft | 501 kts | 222° |
| 2026-04-23 13:16 | 63.15795 | -94.28548 | 40538 ft | 501 kts | 222° |
| 2026-04-23 13:17 | 63.10450 | -94.38445 | 40538 ft | 501 kts | 222° |
| 2026-04-23 13:17 | 63.05100 | -94.48302 | 40535 ft | 501 kts | 222° |
| 2026-04-23 13:18 | 62.99751 | -94.58111 | 40530 ft | 501 kts | 222° |
| 2026-04-23 13:18 | 62.94390 | -94.67891 | 40534 ft | 501 kts | 222° |
| 2026-04-23 13:19 | 62.89024 | -94.77633 | 40532 ft | 501 kts | 222° |
| 2026-04-23 13:19 | 62.83653 | -94.87337 | 40530 ft | 500 kts | 222° |
| 2026-04-23 13:20 | 62.78278 | -94.97001 | 40535 ft | 500 kts | 222° |
| 2026-04-23 13:20 | 62.72897 | -95.06628 | 40533 ft | 500 kts | 221° |
| 2026-04-23 13:21 | 62.67516 | -95.16207 | 40534 ft | 500 kts | 221° |
| 2026-04-23 13:21 | 62.62124 | -95.25761 | 40531 ft | 500 kts | 221° |
| 2026-04-23 13:22 | 62.56728 | -95.35276 | 40534 ft | 500 kts | 221° |
| 2026-04-23 13:22 | 62.51327 | -95.44754 | 40538 ft | 499 kts | 221° |
| 2026-04-23 13:23 | 62.45923 | -95.54190 | 40537 ft | 499 kts | 221° |
| 2026-04-23 13:23 | 62.40516 | -95.63588 | 40541 ft | 499 kts | 221° |
| 2026-04-23 13:24 | 62.35143 | -95.72881 | 40538 ft | 498 kts | 221° |
| 2026-04-23 13:24 | 62.29732 | -95.82196 | 40532 ft | 498 kts | 221° |
| 2026-04-23 13:25 | 62.24326 | -95.91460 | 40538 ft | 497 kts | 221° |
| 2026-04-23 13:25 | 62.18913 | -96.00691 | 40536 ft | 497 kts | 221° |
| 2026-04-23 13:26 | 62.13497 | -96.09883 | 40539 ft | 497 kts | 221° |
| 2026-04-23 13:26 | 62.08081 | -96.19033 | 40534 ft | 496 kts | 221° |
| 2026-04-23 13:27 | 62.02662 | -96.28144 | 40536 ft | 496 kts | 221° |
| 2026-04-23 13:27 | 61.97244 | -96.37212 | 40536 ft | 495 kts | 221° |
| 2026-04-23 13:28 | 61.91823 | -96.46243 | 40539 ft | 495 kts | 221° |
| 2026-04-23 13:28 | 61.86399 | -96.55238 | 40534 ft | 495 kts | 221° |
| 2026-04-23 13:29 | 61.80973 | -96.64193 | 40533 ft | 494 kts | 221° |
| 2026-04-23 13:29 | 61.75545 | -96.73110 | 40535 ft | 494 kts | 220° |
| 2026-04-23 13:30 | 61.70115 | -96.81990 | 40529 ft | 494 kts | 220° |
| 2026-04-23 13:30 | 61.64687 | -96.90828 | 40531 ft | 494 kts | 220° |
| 2026-04-23 13:31 | 61.59247 | -96.99643 | 40524 ft | 494 kts | 220° |
| 2026-04-23 13:31 | 61.53805 | -97.08423 | 40530 ft | 493 kts | 220° |
| 2026-04-23 13:32 | 61.48357 | -97.17172 | 40523 ft | 493 kts | 220° |
| 2026-04-23 13:32 | 61.42941 | -97.25830 | 40518 ft | 493 kts | 220° |
| 2026-04-23 13:33 | 61.37485 | -97.34513 | 40516 ft | 493 kts | 220° |
| 2026-04-23 13:33 | 61.32024 | -97.43166 | 40516 ft | 493 kts | 220° |
| 2026-04-23 13:34 | 61.26520 | -97.51847 | 40520 ft | 493 kts | 220° |
| 2026-04-23 13:34 | 61.21090 | -97.60372 | 40510 ft | 493 kts | 220° |
| 2026-04-23 13:35 | 61.15614 | -97.68933 | 40518 ft | 493 kts | 220° |
| 2026-04-23 13:35 | 61.10134 | -97.77462 | 40523 ft | 493 kts | 220° |
| 2026-04-23 13:36 | 61.04648 | -97.85962 | 40517 ft | 493 kts | 220° |
| 2026-04-23 13:36 | 60.99158 | -97.94429 | 40511 ft | 493 kts | 220° |
| 2026-04-23 13:37 | 60.93662 | -98.02869 | 40504 ft | 493 kts | 220° |
| 2026-04-23 13:37 | 60.88169 | -98.11269 | 40502 ft | 493 kts | 219° |
| 2026-04-23 13:38 | 60.82664 | -98.19648 | 40500 ft | 493 kts | 219° |
| 2026-04-23 13:38 | 60.77156 | -98.27997 | 40495 ft | 492 kts | 219° |
| 2026-04-23 13:39 | 60.71645 | -98.36313 | 40488 ft | 492 kts | 219° |
| 2026-04-23 13:39 | 60.66168 | -98.44541 | 40484 ft | 492 kts | 219° |
| 2026-04-23 13:40 | 60.60652 | -98.52794 | 40479 ft | 492 kts | 219° |
| 2026-04-23 13:40 | 60.55126 | -98.61024 | 40473 ft | 492 kts | 219° |
| 2026-04-23 13:41 | 60.49595 | -98.69226 | 40469 ft | 492 kts | 219° |
| 2026-04-23 13:41 | 60.44059 | -98.77401 | 40462 ft | 492 kts | 219° |
| 2026-04-23 13:42 | 60.38518 | -98.85549 | 40461 ft | 492 kts | 219° |
| 2026-04-23 13:42 | 60.32970 | -98.93670 | 40452 ft | 492 kts | 219° |
| 2026-04-23 13:43 | 60.27420 | -99.01761 | 40445 ft | 492 kts | 219° |
| 2026-04-23 13:43 | 60.21868 | -99.09818 | 40437 ft | 492 kts | 218° |
| 2026-04-23 13:44 | 60.16306 | -99.17857 | 40435 ft | 492 kts | 218° |
| 2026-04-23 13:44 | 60.10740 | -99.25868 | 40427 ft | 492 kts | 218° |
| 2026-04-23 13:45 | 60.06108 | -99.32508 | 40425 ft | 492 kts | 218° |
| 2026-04-23 13:45 | 59.99594 | -99.41807 | 40413 ft | 492 kts | 218° |
| 2026-04-23 13:46 | 59.94052 | -99.49682 | 40411 ft | 492 kts | 218° |
| 2026-04-23 13:46 | 59.88432 | -99.57634 | 40403 ft | 492 kts | 218° |
| 2026-04-23 13:47 | 59.82887 | -99.65449 | 40398 ft | 492 kts | 218° |
| 2026-04-23 13:47 | 59.77292 | -99.73299 | 40394 ft | 492 kts | 218° |
| 2026-04-23 13:48 | 59.71693 | -99.81122 | 40390 ft | 492 kts | 218° |
| 2026-04-23 13:48 | 59.66089 | -99.88921 | 40382 ft | 492 kts | 218° |
| 2026-04-23 13:49 | 59.60478 | -99.96696 | 40379 ft | 492 kts | 218° |
| 2026-04-23 13:49 | 59.54863 | -100.04445 | 40370 ft | 493 kts | 218° |
| 2026-04-23 13:50 | 59.49239 | -100.12174 | 40367 ft | 493 kts | 217° |
| 2026-04-23 13:50 | 59.43609 | -100.19879 | 40358 ft | 493 kts | 217° |
| 2026-04-23 13:51 | 59.37978 | -100.27554 | 40357 ft | 493 kts | 217° |
| 2026-04-23 13:51 | 59.33286 | -100.33925 | 40359 ft | 493 kts | 217° |
| 2026-04-23 13:52 | 59.27640 | -100.41563 | 40349 ft | 493 kts | 217° |
| 2026-04-23 13:52 | 59.21991 | -100.49173 | 40337 ft | 493 kts | 217° |
| 2026-04-23 13:53 | 59.16338 | -100.56758 | 40333 ft | 493 kts | 217° |
| 2026-04-23 13:53 | 59.10684 | -100.64312 | 40322 ft | 493 kts | 217° |
| 2026-04-23 13:54 | 59.05031 | -100.71834 | 40315 ft | 492 kts | 217° |
| 2026-04-23 13:54 | 58.99381 | -100.79323 | 40303 ft | 492 kts | 217° |
| 2026-04-23 13:55 | 58.93715 | -100.86803 | 40297 ft | 492 kts | 217° |
| 2026-04-23 13:55 | 58.88059 | -100.94239 | 40288 ft | 492 kts | 217° |
| 2026-04-23 13:56 | 58.82392 | -101.01659 | 40279 ft | 492 kts | 216° |
| 2026-04-23 13:56 | 58.76721 | -101.09055 | 40275 ft | 492 kts | 216° |
| 2026-04-23 13:57 | 58.71083 | -101.16379 | 40257 ft | 492 kts | 216° |
| 2026-04-23 13:57 | 58.65404 | -101.23727 | 40251 ft | 492 kts | 216° |
| 2026-04-23 13:58 | 58.59719 | -101.31052 | 40239 ft | 492 kts | 216° |
| 2026-04-23 13:58 | 58.54036 | -101.38348 | 40227 ft | 492 kts | 216° |
| 2026-04-23 13:59 | 58.48340 | -101.45628 | 40221 ft | 492 kts | 216° |
| 2026-04-23 13:59 | 58.42638 | -101.52890 | 40206 ft | 493 kts | 216° |
| 2026-04-23 14:00 | 58.37893 | -101.58910 | 40200 ft | 493 kts | 216° |
| 2026-04-23 14:00 | 58.31218 | -101.67345 | 40184 ft | 493 kts | 216° |
| 2026-04-23 14:01 | 58.25502 | -101.74538 | 40174 ft | 493 kts | 216° |
| 2026-04-23 14:01 | 58.19783 | -101.81707 | 40164 ft | 493 kts | 216° |
| 2026-04-23 14:02 | 58.14060 | -101.88852 | 40154 ft | 493 kts | 215° |
| 2026-04-23 14:02 | 58.08340 | -101.95967 | 40145 ft | 492 kts | 215° |
| 2026-04-23 14:03 | 58.02612 | -102.03062 | 40136 ft | 492 kts | 215° |
| 2026-04-23 14:03 | 57.96884 | -102.10131 | 40122 ft | 492 kts | 215° |
| 2026-04-23 14:04 | 57.91157 | -102.17171 | 40120 ft | 491 kts | 215° |
| 2026-04-23 14:04 | 57.85468 | -102.24137 | 40110 ft | 491 kts | 215° |
| 2026-04-23 14:05 | 57.79701 | -102.31172 | 40100 ft | 491 kts | 215° |
| 2026-04-23 14:05 | 57.73966 | -102.38141 | 40090 ft | 491 kts | 214° |
| 2026-04-23 14:06 | 57.68231 | -102.45083 | 40075 ft | 492 kts | 214° |
| 2026-04-23 14:06 | 57.62484 | -102.52012 | 40063 ft | 492 kts | 214° |
| 2026-04-23 14:07 | 57.56735 | -102.58919 | 40054 ft | 492 kts | 214° |
| 2026-04-23 14:07 | 57.48142 | -102.69192 | 40044 ft | 491 kts | 214° |
| 2026-04-23 14:08 | 57.42385 | -102.76042 | 40028 ft | 491 kts | 214° |
| 2026-04-23 14:08 | 57.36624 | -102.82872 | 40017 ft | 492 kts | 214° |
| 2026-04-23 14:09 | 57.30850 | -102.89689 | 40006 ft | 492 kts | 214° |
| 2026-04-23 14:09 | 57.25069 | -102.96491 | 40000 ft | 493 kts | 214° |
| 2026-04-23 14:10 | 57.19281 | -103.03275 | 39985 ft | 493 kts | 214° |
| 2026-04-23 14:10 | 57.13489 | -103.10038 | 39976 ft | 493 kts | 214° |
| 2026-04-23 14:11 | 57.07697 | -103.16775 | 39967 ft | 493 kts | 213° |
| 2026-04-23 14:11 | 57.01893 | -103.23501 | 39961 ft | 493 kts | 213° |
| 2026-04-23 14:12 | 56.96081 | -103.30212 | 39950 ft | 494 kts | 213° |
| 2026-04-23 14:12 | 56.90261 | -103.36906 | 39939 ft | 494 kts | 213° |
| 2026-04-23 14:13 | 56.84436 | -103.43582 | 39935 ft | 494 kts | 213° |
| 2026-04-23 14:13 | 56.78603 | -103.50242 | 39923 ft | 495 kts | 213° |
| 2026-04-23 14:14 | 56.72763 | -103.56885 | 39916 ft | 495 kts | 213° |
| 2026-04-23 14:14 | 56.66915 | -103.63511 | 39911 ft | 495 kts | 213° |
| 2026-04-23 14:15 | 56.61069 | -103.70113 | 39901 ft | 495 kts | 213° |
| 2026-04-23 14:15 | 56.55209 | -103.76704 | 39889 ft | 496 kts | 213° |
| 2026-04-23 14:16 | 56.49347 | -103.83273 | 39880 ft | 495 kts | 213° |
| 2026-04-23 14:16 | 56.43481 | -103.89825 | 39874 ft | 496 kts | 212° |
| 2026-04-23 14:17 | 56.37611 | -103.96356 | 39872 ft | 496 kts | 212° |
| 2026-04-23 14:17 | 56.31735 | -104.02869 | 39861 ft | 496 kts | 212° |
| 2026-04-23 14:18 | 56.25853 | -104.09365 | 39857 ft | 496 kts | 212° |
| 2026-04-23 14:18 | 56.19969 | -104.15840 | 39847 ft | 496 kts | 212° |
| 2026-04-23 14:19 | 56.14076 | -104.22301 | 39846 ft | 496 kts | 212° |
| 2026-04-23 14:19 | 56.08216 | -104.28703 | 39837 ft | 497 kts | 212° |
| 2026-04-23 14:20 | 56.02312 | -104.35129 | 39833 ft | 497 kts | 212° |
| 2026-04-23 14:20 | 55.96407 | -104.41533 | 39827 ft | 497 kts | 212° |
| 2026-04-23 14:21 | 55.90489 | -104.47929 | 39827 ft | 497 kts | 212° |
| 2026-04-23 14:21 | 55.84565 | -104.54308 | 39820 ft | 498 kts | 212° |
| 2026-04-23 14:22 | 55.78633 | -104.60672 | 39818 ft | 498 kts | 212° |
| 2026-04-23 14:22 | 55.72693 | -104.67021 | 39810 ft | 498 kts | 211° |
| 2026-04-23 14:23 | 55.66747 | -104.73356 | 39808 ft | 499 kts | 211° |
| 2026-04-23 14:23 | 55.60794 | -104.79675 | 39806 ft | 499 kts | 211° |
| 2026-04-23 14:24 | 55.54832 | -104.85980 | 39803 ft | 499 kts | 211° |
| 2026-04-23 14:24 | 55.48871 | -104.92261 | 39798 ft | 500 kts | 211° |
| 2026-04-23 14:25 | 55.42897 | -104.98535 | 39786 ft | 500 kts | 211° |
| 2026-04-23 14:25 | 55.36915 | -105.04793 | 39757 ft | 500 kts | 211° |
| 2026-04-23 14:26 | 55.30925 | -105.11039 | 39742 ft | 501 kts | 211° |
| 2026-04-23 14:26 | 55.24925 | -105.17271 | 39728 ft | 501 kts | 211° |
| 2026-04-23 14:27 | 55.18918 | -105.23491 | 39723 ft | 502 kts | 211° |
| 2026-04-23 14:27 | 55.13174 | -105.30391 | 39724 ft | 502 kts | 218° |
| 2026-04-23 14:28 | 55.07729 | -105.38019 | 39736 ft | 502 kts | 219° |
| 2026-04-23 14:28 | 55.02265 | -105.45623 | 39746 ft | 503 kts | 218° |
| 2026-04-23 14:29 | 54.96795 | -105.53219 | 39757 ft | 503 kts | 218° |
| 2026-04-23 14:29 | 54.91353 | -105.60747 | 39760 ft | 503 kts | 218° |
| 2026-04-23 14:30 | 54.85867 | -105.68307 | 39763 ft | 503 kts | 218° |
| 2026-04-23 14:30 | 54.80375 | -105.75851 | 39764 ft | 504 kts | 218° |
| 2026-04-23 14:31 | 54.74875 | -105.83376 | 39759 ft | 504 kts | 218° |
| 2026-04-23 14:31 | 54.69372 | -105.90879 | 39754 ft | 504 kts | 218° |
| 2026-04-23 14:32 | 54.63853 | -105.98378 | 39757 ft | 505 kts | 218° |
| 2026-04-23 14:32 | 54.58329 | -106.05858 | 39754 ft | 505 kts | 218° |
| 2026-04-23 14:33 | 54.52802 | -106.13314 | 39754 ft | 505 kts | 218° |
| 2026-04-23 14:33 | 54.47262 | -106.20762 | 39753 ft | 506 kts | 218° |
| 2026-04-23 14:34 | 54.41713 | -106.28195 | 39747 ft | 506 kts | 218° |
| 2026-04-23 14:34 | 54.36157 | -106.35612 | 39746 ft | 506 kts | 218° |
| 2026-04-23 14:35 | 54.30594 | -106.43011 | 39748 ft | 506 kts | 218° |
| 2026-04-23 14:35 | 54.25025 | -106.50393 | 39748 ft | 506 kts | 218° |
| 2026-04-23 14:36 | 54.19486 | -106.57710 | 39748 ft | 507 kts | 217° |
| 2026-04-23 14:36 | 54.13903 | -106.65060 | 39749 ft | 507 kts | 217° |
| 2026-04-23 14:37 | 54.08319 | -106.72383 | 39748 ft | 507 kts | 217° |
| 2026-04-23 14:37 | 54.02723 | -106.79698 | 39746 ft | 507 kts | 217° |
| 2026-04-23 14:38 | 53.97119 | -106.86996 | 39747 ft | 507 kts | 217° |
| 2026-04-23 14:38 | 53.91510 | -106.94277 | 39750 ft | 508 kts | 217° |
| 2026-04-23 14:39 | 53.85894 | -107.01541 | 39749 ft | 508 kts | 217° |
| 2026-04-23 14:39 | 53.81228 | -107.07557 | 39746 ft | 508 kts | 217° |
| 2026-04-23 14:40 | 53.75607 | -107.14783 | 39748 ft | 508 kts | 217° |
| 2026-04-23 14:40 | 53.69982 | -107.21987 | 39750 ft | 507 kts | 217° |
| 2026-04-23 14:41 | 53.64357 | -107.29167 | 39752 ft | 507 kts | 217° |
| 2026-04-23 14:41 | 53.58790 | -107.36456 | 39759 ft | 507 kts | 223° |
| 2026-04-23 14:42 | 53.53735 | -107.44738 | 39757 ft | 507 kts | 224° |
| 2026-04-23 14:42 | 53.48685 | -107.53009 | 39760 ft | 507 kts | 223° |
| 2026-04-23 14:43 | 53.43633 | -107.61247 | 39761 ft | 507 kts | 223° |
| 2026-04-23 14:43 | 53.38573 | -107.69475 | 39764 ft | 507 kts | 223° |
| 2026-04-23 14:44 | 53.33509 | -107.77676 | 39763 ft | 506 kts | 223° |
| 2026-04-23 14:44 | 53.28441 | -107.85857 | 39761 ft | 506 kts | 223° |
| 2026-04-23 14:45 | 53.23372 | -107.94012 | 39767 ft | 506 kts | 223° |
| 2026-04-23 14:45 | 53.18295 | -108.02151 | 39771 ft | 506 kts | 223° |
| 2026-04-23 14:46 | 53.13211 | -108.10274 | 39772 ft | 506 kts | 223° |
| 2026-04-23 14:46 | 53.08153 | -108.18325 | 39773 ft | 506 kts | 223° |
| 2026-04-23 14:47 | 53.03023 | -108.26464 | 39764 ft | 507 kts | 223° |
| 2026-04-23 14:47 | 52.97956 | -108.34478 | 39759 ft | 507 kts | 223° |
| 2026-04-23 14:48 | 52.92849 | -108.42523 | 39757 ft | 506 kts | 223° |
| 2026-04-23 14:48 | 52.87748 | -108.50536 | 39756 ft | 506 kts | 223° |
| 2026-04-23 14:49 | 52.82637 | -108.58533 | 39766 ft | 505 kts | 223° |
| 2026-04-23 14:49 | 52.77524 | -108.66509 | 39783 ft | 505 kts | 222° |
| 2026-04-23 14:50 | 52.72403 | -108.74470 | 39798 ft | 506 kts | 222° |
| 2026-04-23 14:50 | 52.67266 | -108.82426 | 39817 ft | 507 kts | 223° |
| 2026-04-23 14:51 | 52.62114 | -108.90381 | 39816 ft | 508 kts | 222° |
| 2026-04-23 14:51 | 52.56950 | -108.98327 | 39818 ft | 509 kts | 222° |
| 2026-04-23 14:52 | 52.51782 | -109.06254 | 39821 ft | 509 kts | 222° |
| 2026-04-23 14:52 | 52.46595 | -109.14180 | 39823 ft | 510 kts | 222° |
| 2026-04-23 14:53 | 52.41398 | -109.22097 | 39823 ft | 510 kts | 222° |
| 2026-04-23 14:53 | 52.36187 | -109.30006 | 39827 ft | 511 kts | 222° |
| 2026-04-23 14:54 | 52.30964 | -109.37909 | 39827 ft | 512 kts | 222° |
| 2026-04-23 14:54 | 52.25731 | -109.45800 | 39833 ft | 512 kts | 222° |
| 2026-04-23 14:55 | 52.20488 | -109.53678 | 39837 ft | 513 kts | 222° |
| 2026-04-23 14:55 | 52.15235 | -109.61547 | 39836 ft | 513 kts | 222° |
| 2026-04-23 14:56 | 52.09978 | -109.69394 | 39845 ft | 514 kts | 222° |
| 2026-04-23 14:56 | 52.04741 | -109.77186 | 39849 ft | 514 kts | 222° |
| 2026-04-23 14:57 | 51.99456 | -109.85022 | 39852 ft | 515 kts | 222° |
| 2026-04-23 14:57 | 51.94159 | -109.92850 | 39860 ft | 515 kts | 222° |
| 2026-04-23 14:58 | 51.88826 | -110.00610 | 39873 ft | 516 kts | 218° |
| 2026-04-23 14:58 | 51.83150 | -110.07722 | 39863 ft | 516 kts | 218° |
| 2026-04-23 14:59 | 51.77467 | -110.14829 | 39873 ft | 517 kts | 218° |
| 2026-04-23 14:59 | 51.71782 | -110.21920 | 39878 ft | 516 kts | 218° |
| 2026-04-23 15:00 | 51.66096 | -110.28978 | 39886 ft | 516 kts | 218° |
| 2026-04-23 15:00 | 51.60397 | -110.36041 | 39889 ft | 517 kts | 218° |
| 2026-04-23 15:01 | 51.54687 | -110.43085 | 39892 ft | 517 kts | 218° |
| 2026-04-23 15:01 | 51.48973 | -110.50117 | 39899 ft | 517 kts | 218° |
| 2026-04-23 15:02 | 51.43259 | -110.57124 | 39905 ft | 517 kts | 218° |
| 2026-04-23 15:02 | 51.37539 | -110.64115 | 39908 ft | 517 kts | 218° |
| 2026-04-23 15:03 | 51.31815 | -110.71091 | 39915 ft | 518 kts | 218° |
| 2026-04-23 15:03 | 51.26079 | -110.78057 | 39915 ft | 518 kts | 218° |
| 2026-04-23 15:04 | 51.20336 | -110.85009 | 39921 ft | 518 kts | 218° |
| 2026-04-23 15:04 | 51.14583 | -110.91953 | 39930 ft | 519 kts | 218° |
| 2026-04-23 15:05 | 51.08825 | -110.98879 | 39941 ft | 520 kts | 218° |
| 2026-04-23 15:05 | 51.03052 | -111.05802 | 39940 ft | 520 kts | 218° |
| 2026-04-23 15:06 | 50.97267 | -111.12716 | 39949 ft | 521 kts | 218° |
| 2026-04-23 15:06 | 50.91475 | -111.19615 | 39960 ft | 521 kts | 218° |
| 2026-04-23 15:07 | 50.85674 | -111.26506 | 39969 ft | 521 kts | 218° |
| 2026-04-23 15:07 | 50.79866 | -111.33382 | 39976 ft | 522 kts | 218° |
| 2026-04-23 15:08 | 50.74050 | -111.40244 | 39983 ft | 522 kts | 218° |
| 2026-04-23 15:09 | 50.65363 | -111.50455 | 39991 ft | 522 kts | 218° |
| 2026-04-23 15:09 | 50.59541 | -111.57273 | 39993 ft | 521 kts | 218° |
| 2026-04-23 15:10 | 50.54660 | -111.62971 | 39999 ft | 521 kts | 218° |
| 2026-04-23 15:10 | 50.47894 | -111.70842 | 40005 ft | 521 kts | 218° |
| 2026-04-23 15:11 | 50.42065 | -111.77605 | 40008 ft | 521 kts | 218° |
| 2026-04-23 15:11 | 50.36231 | -111.84349 | 40020 ft | 521 kts | 218° |
| 2026-04-23 15:12 | 50.30395 | -111.91076 | 40020 ft | 521 kts | 218° |
| 2026-04-23 15:12 | 50.24566 | -111.97772 | 40025 ft | 520 kts | 218° |
| 2026-04-23 15:13 | 50.18729 | -112.04459 | 40029 ft | 520 kts | 218° |
| 2026-04-23 15:13 | 50.12891 | -112.11122 | 40033 ft | 520 kts | 218° |
| 2026-04-23 15:14 | 50.07056 | -112.17769 | 40036 ft | 519 kts | 218° |
| 2026-04-23 15:14 | 50.01221 | -112.24386 | 40040 ft | 519 kts | 218° |
| 2026-04-23 15:15 | 49.95389 | -112.30988 | 40044 ft | 518 kts | 218° |
| 2026-04-23 15:15 | 49.89554 | -112.37567 | 40047 ft | 518 kts | 218° |
| 2026-04-23 15:16 | 49.83713 | -112.44138 | 40047 ft | 519 kts | 218° |
| 2026-04-23 15:16 | 49.77866 | -112.50692 | 40045 ft | 519 kts | 217° |
| 2026-04-23 15:17 | 49.72024 | -112.57219 | 40039 ft | 519 kts | 217° |
| 2026-04-23 15:17 | 49.66175 | -112.63739 | 40027 ft | 519 kts | 217° |
| 2026-04-23 15:18 | 49.60674 | -112.70783 | 40018 ft | 518 kts | 225° |
| 2026-04-23 15:18 | 49.55391 | -112.78465 | 40027 ft | 519 kts | 225° |
| 2026-04-23 15:19 | 49.50110 | -112.86084 | 40035 ft | 521 kts | 225° |
| 2026-04-23 15:19 | 49.44854 | -112.93665 | 40042 ft | 522 kts | 225° |
| 2026-04-23 15:20 | 49.40414 | -113.00040 | 40056 ft | 522 kts | 225° |
| 2026-04-23 15:20 | 49.34245 | -113.08879 | 40066 ft | 522 kts | 225° |
| 2026-04-23 15:21 | 49.28923 | -113.16473 | 40065 ft | 523 kts | 225° |
| 2026-04-23 15:21 | 49.23590 | -113.24063 | 40066 ft | 524 kts | 224° |
| 2026-04-23 15:22 | 49.18244 | -113.31647 | 40067 ft | 524 kts | 224° |
| 2026-04-23 15:22 | 49.12898 | -113.39209 | 40072 ft | 523 kts | 224° |
| 2026-04-23 15:23 | 49.07553 | -113.46744 | 40085 ft | 523 kts | 224° |
| 2026-04-23 15:23 | 49.02211 | -113.54254 | 40093 ft | 522 kts | 224° |
| 2026-04-23 15:24 | 48.96874 | -113.61732 | 40093 ft | 522 kts | 224° |
| 2026-04-23 15:24 | 48.91529 | -113.69198 | 40096 ft | 521 kts | 224° |
| 2026-04-23 15:25 | 48.86185 | -113.76639 | 40089 ft | 521 kts | 224° |
| 2026-04-23 15:25 | 48.81743 | -113.82809 | 40085 ft | 520 kts | 224° |
| 2026-04-23 15:26 | 48.75501 | -113.91450 | 40075 ft | 519 kts | 224° |
| 2026-04-23 15:26 | 48.70160 | -113.98821 | 40069 ft | 520 kts | 224° |
| 2026-04-23 15:27 | 48.65716 | -114.04937 | 40060 ft | 520 kts | 224° |
| 2026-04-23 15:27 | 48.60353 | -114.12297 | 40027 ft | 521 kts | 224° |
| 2026-04-23 15:28 | 48.54108 | -114.20841 | 40010 ft | 522 kts | 224° |
| 2026-04-23 15:28 | 48.49593 | -114.26998 | 39993 ft | 522 kts | 224° |
| 2026-04-23 15:29 | 48.44238 | -114.34282 | 39979 ft | 522 kts | 224° |
| 2026-04-23 15:29 | 48.38848 | -114.41592 | 39984 ft | 522 kts | 224° |
| 2026-04-23 15:30 | 48.33447 | -114.48895 | 39985 ft | 522 kts | 224° |
| 2026-04-23 15:30 | 48.28039 | -114.56185 | 39994 ft | 523 kts | 224° |
| 2026-04-23 15:31 | 48.22620 | -114.63469 | 39997 ft | 523 kts | 224° |
| 2026-04-23 15:31 | 48.17191 | -114.70745 | 39998 ft | 524 kts | 223° |
| 2026-04-23 15:32 | 48.11749 | -114.78016 | 39993 ft | 524 kts | 223° |
| 2026-04-23 15:32 | 48.06297 | -114.85279 | 39990 ft | 525 kts | 223° |
| 2026-04-23 15:33 | 48.00837 | -114.92531 | 39979 ft | 525 kts | 223° |
| 2026-04-23 15:33 | 47.95382 | -114.99755 | 39972 ft | 525 kts | 224° |
| 2026-04-23 15:34 | 47.89975 | -115.06896 | 39969 ft | 524 kts | 224° |
| 2026-04-23 15:34 | 47.84029 | -115.13162 | 40000 ft | 529 kts | 207° |
| 2026-04-23 15:35 | 47.77173 | -115.17262 | 39981 ft | 531 kts | 204° |
| 2026-04-23 15:35 | 47.70271 | -115.21182 | 39986 ft | 531 kts | 204° |
| 2026-04-23 15:36 | 47.63385 | -115.25146 | 39997 ft | 531 kts | 204° |
| 2026-04-23 15:36 | 47.56486 | -115.29063 | 39999 ft | 531 kts | 204° |
| 2026-04-23 15:37 | 47.49594 | -115.32993 | 40007 ft | 531 kts | 204° |
| 2026-04-23 15:37 | 47.42702 | -115.36895 | 40011 ft | 531 kts | 204° |
| 2026-04-23 15:38 | 47.35803 | -115.40800 | 40022 ft | 531 kts | 204° |
| 2026-04-23 15:38 | 47.28901 | -115.44690 | 40027 ft | 531 kts | 204° |
| 2026-04-23 15:39 | 47.21997 | -115.48573 | 40035 ft | 531 kts | 204° |
| 2026-04-23 15:39 | 47.15094 | -115.52443 | 40048 ft | 531 kts | 204° |
| 2026-04-23 15:40 | 47.08237 | -115.56278 | 40054 ft | 531 kts | 204° |
| 2026-04-23 15:40 | 47.01328 | -115.60131 | 40054 ft | 531 kts | 204° |
| 2026-04-23 15:41 | 46.94420 | -115.63972 | 40061 ft | 531 kts | 204° |
| 2026-04-23 15:41 | 46.87507 | -115.67806 | 40066 ft | 531 kts | 204° |
| 2026-04-23 15:42 | 46.80592 | -115.71630 | 40068 ft | 531 kts | 204° |
| 2026-04-23 15:42 | 46.73685 | -115.75439 | 40080 ft | 531 kts | 204° |
| 2026-04-23 15:43 | 46.66772 | -115.79242 | 40077 ft | 531 kts | 204° |
| 2026-04-23 15:43 | 46.59857 | -115.83034 | 40084 ft | 531 kts | 204° |
| 2026-04-23 15:44 | 46.52942 | -115.86817 | 40089 ft | 531 kts | 204° |
| 2026-04-23 15:44 | 46.46027 | -115.90589 | 40094 ft | 531 kts | 204° |
| 2026-04-23 15:45 | 46.39106 | -115.94354 | 40097 ft | 531 kts | 204° |
| 2026-04-23 15:45 | 46.32178 | -115.98112 | 40097 ft | 532 kts | 204° |
| 2026-04-23 15:46 | 46.25241 | -116.01866 | 40093 ft | 532 kts | 204° |
| 2026-04-23 15:46 | 46.18302 | -116.05611 | 40078 ft | 532 kts | 204° |
| 2026-04-23 15:47 | 46.11359 | -116.09347 | 40069 ft | 533 kts | 204° |
| 2026-04-23 15:47 | 46.04424 | -116.13070 | 40059 ft | 532 kts | 204° |
| 2026-04-23 15:48 | 45.97478 | -116.16788 | 40057 ft | 532 kts | 204° |
| 2026-04-23 15:48 | 45.90540 | -116.20491 | 40055 ft | 531 kts | 204° |
| 2026-04-23 15:49 | 45.83612 | -116.24180 | 40062 ft | 531 kts | 204° |
| 2026-04-23 15:49 | 45.76690 | -116.27855 | 40067 ft | 530 kts | 204° |
| 2026-04-23 15:50 | 45.69816 | -116.31496 | 40081 ft | 530 kts | 204° |
| 2026-04-23 15:50 | 45.62908 | -116.35145 | 40100 ft | 530 kts | 204° |
| 2026-04-23 15:51 | 45.55990 | -116.38790 | 40092 ft | 530 kts | 204° |
| 2026-04-23 15:51 | 45.49069 | -116.42426 | 40090 ft | 530 kts | 204° |
| 2026-04-23 15:52 | 45.42139 | -116.46057 | 40090 ft | 531 kts | 204° |
| 2026-04-23 15:52 | 45.35213 | -116.49679 | 40094 ft | 531 kts | 204° |
| 2026-04-23 15:53 | 45.28280 | -116.53292 | 40099 ft | 531 kts | 204° |
| 2026-04-23 15:53 | 45.21342 | -116.56900 | 40098 ft | 531 kts | 204° |
| 2026-04-23 15:54 | 45.14406 | -116.60498 | 40104 ft | 531 kts | 204° |
| 2026-04-23 15:54 | 45.07472 | -116.64084 | 40119 ft | 530 kts | 204° |
| 2026-04-23 15:55 | 45.00544 | -116.67658 | 40114 ft | 530 kts | 204° |
| 2026-04-23 15:55 | 44.93619 | -116.71222 | 40113 ft | 529 kts | 203° |
| 2026-04-23 15:56 | 44.86704 | -116.74771 | 40119 ft | 529 kts | 203° |
| 2026-04-23 15:56 | 44.79796 | -116.78308 | 40122 ft | 527 kts | 203° |
| 2026-04-23 15:57 | 44.72906 | -116.81826 | 40129 ft | 526 kts | 203° |
| 2026-04-23 15:57 | 44.66035 | -116.85327 | 40128 ft | 524 kts | 203° |
| 2026-04-23 15:58 | 44.59178 | -116.88811 | 40133 ft | 524 kts | 203° |
| 2026-04-23 15:58 | 44.52327 | -116.92283 | 40138 ft | 523 kts | 203° |
| 2026-04-23 15:59 | 44.45484 | -116.95742 | 40157 ft | 522 kts | 203° |
| 2026-04-23 15:59 | 44.38646 | -116.99190 | 40158 ft | 522 kts | 203° |
| 2026-04-23 16:00 | 44.31813 | -117.02627 | 40152 ft | 522 kts | 203° |
| 2026-04-23 16:00 | 44.25033 | -117.06030 | 40147 ft | 522 kts | 203° |
| 2026-04-23 16:01 | 44.18198 | -117.09451 | 40149 ft | 522 kts | 203° |
| 2026-04-23 16:01 | 44.11362 | -117.12865 | 40153 ft | 522 kts | 203° |
| 2026-04-23 16:02 | 44.04519 | -117.16274 | 40148 ft | 523 kts | 203° |
| 2026-04-23 16:02 | 43.97668 | -117.19678 | 40150 ft | 523 kts | 203° |
| 2026-04-23 16:03 | 43.90811 | -117.23076 | 40155 ft | 523 kts | 203° |
| 2026-04-23 16:03 | 43.83955 | -117.26466 | 40155 ft | 524 kts | 203° |
| 2026-04-23 16:04 | 43.77089 | -117.29853 | 40165 ft | 524 kts | 203° |
| 2026-04-23 16:04 | 43.70220 | -117.33232 | 40166 ft | 524 kts | 203° |
| 2026-04-23 16:05 | 43.64508 | -117.36037 | 40166 ft | 524 kts | 203° |
| 2026-04-23 16:05 | 43.56484 | -117.39967 | 40160 ft | 523 kts | 203° |
| 2026-04-23 16:06 | 43.49622 | -117.43318 | 40167 ft | 523 kts | 203° |
| 2026-04-23 16:06 | 43.42809 | -117.46638 | 40168 ft | 522 kts | 203° |
| 2026-04-23 16:07 | 43.35920 | -117.49987 | 40168 ft | 522 kts | 203° |
| 2026-04-23 16:07 | 43.29073 | -117.53307 | 40167 ft | 522 kts | 203° |
| 2026-04-23 16:08 | 43.22276 | -117.56596 | 40169 ft | 521 kts | 203° |
| 2026-04-23 16:08 | 43.15437 | -117.59896 | 40169 ft | 521 kts | 203° |
| 2026-04-23 16:09 | 43.08603 | -117.63188 | 40164 ft | 520 kts | 202° |
| 2026-04-23 16:09 | 43.01772 | -117.66469 | 40169 ft | 520 kts | 203° |
| 2026-04-23 16:10 | 42.94941 | -117.69742 | 40166 ft | 520 kts | 202° |
| 2026-04-23 16:10 | 42.88108 | -117.73009 | 40161 ft | 520 kts | 202° |
| 2026-04-23 16:11 | 42.81285 | -117.76263 | 40152 ft | 520 kts | 202° |
| 2026-04-23 16:11 | 42.74455 | -117.79514 | 40152 ft | 520 kts | 202° |
| 2026-04-23 16:12 | 42.67623 | -117.82757 | 40151 ft | 520 kts | 202° |
| 2026-04-23 16:12 | 42.60790 | -117.85994 | 40148 ft | 520 kts | 202° |
| 2026-04-23 16:13 | 42.54167 | -117.89814 | 40151 ft | 517 kts | 208° |
| 2026-04-23 16:13 | 42.44345 | -117.95842 | 40144 ft | 516 kts | 207° |
| 2026-04-23 16:14 | 42.37802 | -117.99846 | 40155 ft | 516 kts | 208° |
| 2026-04-23 16:14 | 42.31299 | -118.03813 | 40157 ft | 516 kts | 207° |
| 2026-04-23 16:15 | 42.24753 | -118.07797 | 40158 ft | 516 kts | 207° |
| 2026-04-23 16:15 | 42.18216 | -118.11768 | 40160 ft | 516 kts | 207° |
| 2026-04-23 16:16 | 42.11671 | -118.15733 | 40164 ft | 516 kts | 207° |
| 2026-04-23 16:16 | 42.05125 | -118.19691 | 40170 ft | 516 kts | 207° |
| 2026-04-23 16:17 | 41.98374 | -118.23025 | 40203 ft | 521 kts | 198° |
| 2026-04-23 16:17 | 41.92519 | -118.24946 | 40187 ft | 521 kts | 197° |
| 2026-04-23 16:18 | 41.85447 | -118.27105 | 40183 ft | 522 kts | 197° |
| 2026-04-23 16:18 | 41.78386 | -118.29346 | 40174 ft | 521 kts | 197° |
| 2026-04-23 16:19 | 41.71317 | -118.31534 | 40172 ft | 521 kts | 197° |
| 2026-04-23 16:19 | 41.64255 | -118.33742 | 40163 ft | 521 kts | 197° |
| 2026-04-23 16:20 | 41.57192 | -118.35931 | 40159 ft | 521 kts | 197° |
| 2026-04-23 16:20 | 41.50134 | -118.38120 | 40151 ft | 520 kts | 197° |
| 2026-04-23 16:21 | 41.43082 | -118.40300 | 40154 ft | 520 kts | 197° |
| 2026-04-23 16:21 | 41.36038 | -118.42474 | 40153 ft | 520 kts | 197° |
| 2026-04-23 16:22 | 41.28989 | -118.44644 | 40159 ft | 520 kts | 197° |
| 2026-04-23 16:22 | 41.21933 | -118.46810 | 40154 ft | 520 kts | 197° |
| 2026-04-23 16:23 | 41.14882 | -118.48972 | 40149 ft | 520 kts | 197° |
| 2026-04-23 16:23 | 41.07834 | -118.51127 | 40151 ft | 520 kts | 197° |
| 2026-04-23 16:24 | 41.00797 | -118.53274 | 40152 ft | 519 kts | 197° |
| 2026-04-23 16:24 | 40.93757 | -118.55417 | 40147 ft | 519 kts | 197° |
| 2026-04-23 16:25 | 40.86721 | -118.57555 | 40148 ft | 519 kts | 197° |
| 2026-04-23 16:25 | 40.79689 | -118.59687 | 40155 ft | 518 kts | 197° |
| 2026-04-23 16:26 | 40.72708 | -118.61798 | 40151 ft | 518 kts | 197° |
| 2026-04-23 16:26 | 40.65684 | -118.63919 | 40158 ft | 518 kts | 197° |
| 2026-04-23 16:27 | 40.58663 | -118.66033 | 40155 ft | 517 kts | 197° |
| 2026-04-23 16:27 | 40.51652 | -118.68140 | 40155 ft | 517 kts | 197° |
| 2026-04-23 16:28 | 40.44636 | -118.70244 | 40158 ft | 517 kts | 197° |
| 2026-04-23 16:28 | 40.37621 | -118.72343 | 40163 ft | 517 kts | 197° |
| 2026-04-23 16:29 | 40.30607 | -118.74437 | 40168 ft | 517 kts | 197° |
| 2026-04-23 16:29 | 40.23595 | -118.76527 | 40177 ft | 517 kts | 197° |
| 2026-04-23 16:30 | 40.16584 | -118.78612 | 40184 ft | 516 kts | 197° |
| 2026-04-23 16:30 | 40.09576 | -118.80691 | 40184 ft | 516 kts | 197° |
| 2026-04-23 16:31 | 40.02573 | -118.82764 | 40181 ft | 516 kts | 197° |
| 2026-04-23 16:31 | 39.95582 | -118.84830 | 40173 ft | 515 kts | 197° |
| 2026-04-23 16:32 | 39.88589 | -118.86892 | 40160 ft | 515 kts | 198° |
| 2026-04-23 16:32 | 39.81601 | -118.88948 | 40145 ft | 514 kts | 198° |
| 2026-04-23 16:33 | 39.74619 | -118.90998 | 40143 ft | 514 kts | 198° |
| 2026-04-23 16:33 | 39.67643 | -118.93042 | 40131 ft | 514 kts | 198° |
| 2026-04-23 16:34 | 39.60672 | -118.95080 | 40116 ft | 513 kts | 198° |
| 2026-04-23 16:34 | 39.53705 | -118.97113 | 40107 ft | 513 kts | 198° |
| 2026-04-23 16:35 | 39.46750 | -118.99138 | 40095 ft | 513 kts | 198° |
| 2026-04-23 16:35 | 39.39790 | -119.01161 | 40099 ft | 512 kts | 198° |
| 2026-04-23 16:36 | 39.32831 | -119.03179 | 40109 ft | 512 kts | 198° |
| 2026-04-23 16:36 | 39.25872 | -119.05193 | 40112 ft | 512 kts | 198° |
| 2026-04-23 16:37 | 39.18917 | -119.07201 | 40092 ft | 511 kts | 198° |
| 2026-04-23 16:37 | 39.11978 | -119.09202 | 40125 ft | 511 kts | 198° |
| 2026-04-23 16:38 | 39.05090 | -119.11182 | 40139 ft | 510 kts | 198° |
| 2026-04-23 16:38 | 38.98167 | -119.13170 | 40140 ft | 510 kts | 198° |
| 2026-04-23 16:39 | 38.91240 | -119.15155 | 40150 ft | 510 kts | 198° |
| 2026-04-23 16:39 | 38.84321 | -119.17133 | 40155 ft | 509 kts | 198° |
| 2026-04-23 16:40 | 38.77410 | -119.19106 | 40169 ft | 509 kts | 198° |
| 2026-04-23 16:40 | 38.70502 | -119.21073 | 40174 ft | 508 kts | 198° |
| 2026-04-23 16:41 | 38.63603 | -119.23034 | 40175 ft | 507 kts | 199° |
| 2026-04-23 16:41 | 38.56716 | -119.24987 | 40184 ft | 506 kts | 199° |
| 2026-04-23 16:42 | 38.49841 | -119.26934 | 40188 ft | 506 kts | 199° |
| 2026-04-23 16:42 | 38.42977 | -119.28874 | 40191 ft | 505 kts | 199° |
| 2026-04-23 16:43 | 38.36115 | -119.30809 | 40194 ft | 505 kts | 199° |
| 2026-04-23 16:43 | 38.29260 | -119.32738 | 40191 ft | 504 kts | 199° |
| 2026-04-23 16:44 | 38.22411 | -119.34663 | 40193 ft | 504 kts | 199° |
| 2026-04-23 16:44 | 38.15409 | -119.35886 | 40209 ft | 517 kts | 185° |
| 2026-04-23 16:45 | 38.08193 | -119.35596 | 40192 ft | 520 kts | 184° |
| 2026-04-23 16:45 | 38.00971 | -119.35027 | 40179 ft | 520 kts | 184° |
| 2026-04-23 16:46 | 37.93799 | -119.34605 | 40170 ft | 519 kts | 185° |
| 2026-04-23 16:46 | 37.86533 | -119.34103 | 40157 ft | 519 kts | 184° |
| 2026-04-23 16:47 | 37.79369 | -119.33644 | 40152 ft | 519 kts | 185° |
| 2026-04-23 16:47 | 37.72158 | -119.33168 | 40142 ft | 519 kts | 184° |
| 2026-04-23 16:48 | 37.64953 | -119.32697 | 40135 ft | 518 kts | 185° |
| 2026-04-23 16:48 | 37.57758 | -119.32229 | 40135 ft | 518 kts | 185° |
| 2026-04-23 16:49 | 37.50568 | -119.31759 | 40135 ft | 517 kts | 185° |
| 2026-04-23 16:49 | 37.43393 | -119.31296 | 40131 ft | 516 kts | 185° |
| 2026-04-23 16:50 | 37.36220 | -119.30829 | 40131 ft | 516 kts | 185° |
| 2026-04-23 16:50 | 37.29059 | -119.30367 | 40137 ft | 515 kts | 185° |
| 2026-04-23 16:51 | 37.21901 | -119.29904 | 40139 ft | 515 kts | 185° |
| 2026-04-23 16:51 | 37.14753 | -119.29443 | 40135 ft | 514 kts | 185° |
| 2026-04-23 16:52 | 37.07613 | -119.28983 | 40220 ft | 514 kts | 186° |
| 2026-04-23 16:52 | 37.00468 | -119.28526 | 40149 ft | 513 kts | 186° |
| 2026-04-23 16:53 | 36.93351 | -119.28068 | 40152 ft | 512 kts | 186° |
| 2026-04-23 16:53 | 36.86235 | -119.27613 | 40150 ft | 511 kts | 186° |
| 2026-04-23 16:54 | 36.79130 | -119.27119 | 40163 ft | 515 kts | 183° |
| 2026-04-23 16:54 | 36.71996 | -119.26145 | 40165 ft | 515 kts | 183° |
| 2026-04-23 16:55 | 36.64869 | -119.25189 | 40157 ft | 515 kts | 183° |
| 2026-04-23 16:55 | 36.57749 | -119.24229 | 40176 ft | 514 kts | 183° |
| 2026-04-23 16:56 | 36.50678 | -119.23279 | 40165 ft | 514 kts | 184° |
| 2026-04-23 16:56 | 36.43513 | -119.22317 | 40171 ft | 514 kts | 184° |
| 2026-04-23 16:57 | 36.36489 | -119.21376 | 40173 ft | 514 kts | 184° |
| 2026-04-23 16:57 | 36.29375 | -119.20426 | 40174 ft | 514 kts | 184° |
| 2026-04-23 16:58 | 36.22261 | -119.19476 | 40182 ft | 514 kts | 184° |
| 2026-04-23 16:58 | 36.15112 | -119.18524 | 40190 ft | 513 kts | 184° |
| 2026-04-23 16:59 | 36.08006 | -119.17581 | 40187 ft | 513 kts | 184° |
| 2026-04-23 16:59 | 36.00950 | -119.16472 | 40210 ft | 524 kts | 175° |
| 2026-04-23 17:00 | 35.97429 | -119.15096 | 40210 ft | 535 kts | 170° |
| 2026-04-23 17:00 | 35.93921 | -119.13601 | 40198 ft | 533 kts | 170° |
| 2026-04-23 17:00 | 35.86969 | -119.10226 | 40199 ft | 539 kts | 166° |
| 2026-04-23 17:01 | 35.80021 | -119.06839 | 40196 ft | 535 kts | 169° |
| 2026-04-23 17:01 | 35.73063 | -119.03523 | 40187 ft | 537 kts | 167° |
| 2026-04-23 17:02 | 35.66120 | -119.00142 | 40185 ft | 535 kts | 168° |
| 2026-04-23 17:02 | 35.59178 | -118.96837 | 40184 ft | 536 kts | 168° |
| 2026-04-23 17:03 | 35.52244 | -118.93488 | 40175 ft | 534 kts | 168° |
| 2026-04-23 17:03 | 35.45393 | -118.90217 | 39876 ft | 521 kts | 168° |
| 2026-04-23 17:04 | 35.42006 | -118.88597 | 39169 ft | 523 kts | 169° |
| 2026-04-23 17:04 | 35.39757 | -118.87524 | 38701 ft | 523 kts | 169° |
| 2026-04-23 17:04 | 35.36373 | -118.85911 | 37982 ft | 522 kts | 169° |
| 2026-04-23 17:04 | 35.32999 | -118.84299 | 37292 ft | 519 kts | 168° |
| 2026-04-23 17:05 | 35.29641 | -118.82697 | 36599 ft | 517 kts | 168° |
| 2026-04-23 17:05 | 35.26299 | -118.81107 | 35913 ft | 514 kts | 168° |
| 2026-04-23 17:05 | 35.22970 | -118.79525 | 35223 ft | 511 kts | 168° |
| 2026-04-23 17:05 | 35.19663 | -118.77953 | 34534 ft | 509 kts | 167° |
| 2026-04-23 17:06 | 35.16381 | -118.76392 | 33775 ft | 499 kts | 167° |
| 2026-04-23 17:06 | 35.13229 | -118.74881 | 33178 ft | 479 kts | 168° |
| 2026-04-23 17:06 | 35.10139 | -118.73425 | 32515 ft | 475 kts | 168° |
| 2026-04-23 17:06 | 35.07064 | -118.71984 | 31867 ft | 472 kts | 168° |
| 2026-04-23 17:07 | 35.04015 | -118.70539 | 31213 ft | 468 kts | 167° |
| 2026-04-23 17:07 | 35.00989 | -118.69106 | 30568 ft | 464 kts | 168° |
| 2026-04-23 17:07 | 34.97976 | -118.67728 | 29881 ft | 460 kts | 168° |
| 2026-04-23 17:07 | 34.94988 | -118.66377 | 29227 ft | 454 kts | 168° |
| 2026-04-23 17:08 | 34.92051 | -118.65024 | 28585 ft | 449 kts | 168° |
| 2026-04-23 17:08 | 34.89150 | -118.63680 | 27943 ft | 443 kts | 168° |
| 2026-04-23 17:08 | 34.86282 | -118.62363 | 27314 ft | 438 kts | 168° |
| 2026-04-23 17:08 | 34.83446 | -118.61069 | 26687 ft | 433 kts | 168° |
| 2026-04-23 17:09 | 34.80649 | -118.59789 | 26051 ft | 428 kts | 168° |
| 2026-04-23 17:09 | 34.77876 | -118.58517 | 25427 ft | 424 kts | 168° |
| 2026-04-23 17:09 | 34.75133 | -118.57260 | 24808 ft | 419 kts | 168° |
| 2026-04-23 17:09 | 34.72415 | -118.56019 | 24189 ft | 415 kts | 168° |
| 2026-04-23 17:10 | 34.69722 | -118.54790 | 23538 ft | 412 kts | 168° |
| 2026-04-23 17:10 | 34.67058 | -118.53572 | 22903 ft | 406 kts | 168° |
| 2026-04-23 17:10 | 34.64470 | -118.52389 | 22304 ft | 400 kts | 168° |
| 2026-04-23 17:10 | 34.61851 | -118.51197 | 21682 ft | 394 kts | 168° |
| 2026-04-23 17:11 | 34.59300 | -118.50035 | 21077 ft | 389 kts | 167° |
| 2026-04-23 17:11 | 34.56814 | -118.48903 | 20477 ft | 384 kts | 167° |
| 2026-04-23 17:11 | 34.54323 | -118.47770 | 19876 ft | 380 kts | 167° |
| 2026-04-23 17:11 | 34.51856 | -118.46648 | 19267 ft | 377 kts | 167° |
| 2026-04-23 17:12 | 34.49376 | -118.45522 | 18642 ft | 374 kts | 167° |
| 2026-04-23 17:12 | 34.46953 | -118.44421 | 18012 ft | 371 kts | 167° |
| 2026-04-23 17:12 | 34.44543 | -118.43327 | 17302 ft | 368 kts | 166° |
| 2026-04-23 17:12 | 34.42162 | -118.42245 | 16697 ft | 363 kts | 166° |
| 2026-04-23 17:13 | 34.39871 | -118.41069 | 16091 ft | 362 kts | 160° |
| 2026-04-23 17:13 | 34.37604 | -118.39765 | 15499 ft | 359 kts | 161° |
| 2026-04-23 17:13 | 34.35343 | -118.38491 | 14890 ft | 357 kts | 160° |
| 2026-04-23 17:13 | 34.33135 | -118.37238 | 14276 ft | 356 kts | 160° |
| 2026-04-23 17:14 | 34.30930 | -118.35977 | 13641 ft | 354 kts | 160° |
| 2026-04-23 17:14 | 34.28713 | -118.34710 | 12996 ft | 350 kts | 159° |
| 2026-04-23 17:14 | 34.26520 | -118.33463 | 12385 ft | 346 kts | 159° |
| 2026-04-23 17:14 | 34.24358 | -118.32234 | 11909 ft | 338 kts | 159° |
| 2026-04-23 17:15 | 34.22284 | -118.31051 | 11755 ft | 321 kts | 159° |
| 2026-04-23 17:15 | 34.20419 | -118.29659 | 11390 ft | 319 kts | 140° |
| 2026-04-23 17:15 | 34.18869 | -118.27739 | 10817 ft | 320 kts | 135° |
| 2026-04-23 17:15 | 34.17381 | -118.25751 | 10263 ft | 320 kts | 135° |
| 2026-04-23 17:16 | 34.15873 | -118.23783 | 9678 ft | 318 kts | 136° |
| 2026-04-23 17:16 | 34.14351 | -118.21860 | 9116 ft | 315 kts | 136° |
| 2026-04-23 17:16 | 34.12848 | -118.19955 | 8564 ft | 312 kts | 135° |
| 2026-04-23 17:16 | 34.11395 | -118.18091 | 8043 ft | 294 kts | 135° |
| 2026-04-23 17:17 | 34.10055 | -118.16371 | 7523 ft | 266 kts | 135° |
| 2026-04-23 17:17 | 34.08845 | -118.14827 | 7136 ft | 244 kts | 135° |
| 2026-04-23 17:17 | 34.07718 | -118.13393 | 6810 ft | 228 kts | 135° |
| 2026-04-23 17:17 | 34.06642 | -118.12023 | 6299 ft | 222 kts | 134° |
| 2026-04-23 17:18 | 34.04560 | -118.09366 | 5136 ft | 213 kts | 134° |
| 2026-04-23 17:18 | 34.03561 | -118.08094 | 4615 ft | 202 kts | 134° |
| 2026-04-23 17:18 | 34.02642 | -118.06923 | 4334 ft | 183 kts | 134° |
| 2026-04-23 17:19 | 34.01796 | -118.05845 | 4057 ft | 173 kts | 134° |
| 2026-04-23 17:19 | 34.00907 | -118.04943 | 3912 ft | 165 kts | 159° |
| 2026-04-23 17:19 | 33.99734 | -118.04905 | 4004 ft | 179 kts | 195° |
| 2026-04-23 17:19 | 33.98727 | -118.05755 | 3976 ft | 176 kts | 236° |
| 2026-04-23 17:20 | 33.98414 | -118.07119 | 4015 ft | 171 kts | 267° |
| 2026-04-23 17:20 | 33.98278 | -118.09881 | 4005 ft | 158 kts | 264° |
| 2026-04-23 17:21 | 33.98031 | -118.12473 | 4008 ft | 154 kts | 263° |
| 2026-04-23 17:21 | 33.97900 | -118.13756 | 4006 ft | 154 kts | 263° |
| 2026-04-23 17:21 | 33.97640 | -118.16300 | 3903 ft | 155 kts | 263° |
| 2026-04-23 17:22 | 33.97511 | -118.17578 | 3712 ft | 153 kts | 263° |
| 2026-04-23 17:22 | 33.97254 | -118.20097 | 3336 ft | 151 kts | 263° |
| 2026-04-23 17:23 | 33.97000 | -118.22587 | 2928 ft | 149 kts | 262° |
| 2026-04-23 17:23 | 33.96875 | -118.23826 | 2740 ft | 149 kts | 262° |
| 2026-04-23 17:23 | 33.96623 | -118.26287 | 2351 ft | 147 kts | 262° |
| 2026-04-23 17:24 | 33.96499 | -118.27506 | 2161 ft | 146 kts | 262° |
| 2026-04-23 17:24 | 33.96375 | -118.28722 | 1964 ft | 146 kts | 262° |
| 2026-04-23 17:24 | 33.96128 | -118.31146 | 1585 ft | 145 kts | 263° |
| 2026-04-23 17:25 | 33.95881 | -118.33559 | 1201 ft | 145 kts | 263° |
| 2026-04-23 17:25 | 33.95770 | -118.34731 | 1025 ft | 145 kts | 263° |
| 2026-04-23 17:26 | 33.95521 | -118.37158 | 660 ft | 148 kts | 263° |
| 2026-04-23 17:26 | 33.95267 | -118.39668 | 268 ft | 153 kts | 262° |
| 2026-04-23 17:27 | 33.95025 | -118.42007 | 113 ft | 107 kts | 263° |
| 2026-04-23 17:27 | 33.94964 | -118.42469 | 111 ft | 21 kts | 246° |
| 2026-04-23 17:27 | 33.94894 | -118.42623 | 110 ft | 21 kts | 237° |
| 2026-04-23 17:27 | 33.94802 | -118.42727 | 110 ft | 16 kts | 215° |
| 2026-04-23 17:28 | 33.94727 | -118.42772 | 111 ft | 8 kts | 194° |
| 2026-04-23 17:28 | 33.94679 | -118.42777 | 109 ft | 9 kts | 178° |
| 2026-04-23 17:28 | 33.94592 | -118.42768 | 105 ft | 13 kts | 174° |
| 2026-04-23 17:28 | 33.94547 | -118.42782 | 105 ft | 4 kts | 213° |
| 2026-04-23 17:29 | 33.94538 | -118.42795 | 105 ft | 1 kts | 234° |
| 2026-04-23 17:29 | 33.94536 | -118.42805 | 105 ft | 3 kts | 252° |
| 2026-04-23 17:29 | 33.94527 | -118.42861 | 104 ft | 2 kts | 262° |
| 2026-04-23 17:30 | 33.94527 | -118.42869 | 103 ft | 2 kts | 265° |
| 2026-04-23 17:30 | 33.94526 | -118.42881 | 103 ft | 0 kts | 265° |